AZU8937 RJGG-OBBI
Flight info
| Callsign | AZU8937 |
|---|---|
| Flight time | N/A |
| Altitude | 32000 |
| Route | ISE3 KOZA KEC ALUYO Z26 TONAR Y52 IGURU G581 HCN G86 KAPLI DCT IKELA/K0911F340 A1 LENKO DCT TRABE/N0494F340 DCT OKENA DCT CMP G473 BGO G472 PTN N895 BUBKO/N0491F360 N895 AAE L639 GUREV/N0483F380 L639 RASKI L301 RAGMA N571 MENSA/N0494F340 N571 IVOXI M557 TUMAK DCT ROTAG L768 ORDIG |
| Aircraft | A339/H-SADE1E2E3GHIJ3J5M1P2RWXY/LB2D1 |
Departure
| Time | 2026-05-07 11:50 |
|---|---|
| Airport | Chubu Centrair International Airport (RJGG) |
Arrival
| Time | N/A |
|---|---|
| Airport | Bahrain International Airport (OBBI) |
| Time | Latitude | Longitude | Altitude | Speed | Heading |
|---|---|---|---|---|---|
| 2026-05-07 11:17 | 34.86497 | 136.80933 | 17 ft | 0 kts | 79° |
| 2026-05-07 11:36 | 34.86495 | 136.80919 | 17 ft | 2 kts | 79° |
| 2026-05-07 11:36 | 34.86492 | 136.80902 | 17 ft | 2 kts | 79° |
| 2026-05-07 11:36 | 34.86489 | 136.80885 | 17 ft | 2 kts | 79° |
| 2026-05-07 11:36 | 34.86485 | 136.80867 | 17 ft | 2 kts | 54° |
| 2026-05-07 11:37 | 34.86475 | 136.80855 | 17 ft | 2 kts | 31° |
| 2026-05-07 11:37 | 34.86461 | 136.80847 | 17 ft | 2 kts | 8° |
| 2026-05-07 11:37 | 34.86446 | 136.80847 | 17 ft | 2 kts | 347° |
| 2026-05-07 11:37 | 34.86431 | 136.80852 | 17 ft | 2 kts | 347° |
| 2026-05-07 11:38 | 34.86417 | 136.80855 | 17 ft | 1 kts | 349° |
| 2026-05-07 11:38 | 34.86415 | 136.80856 | 17 ft | 0 kts | 349° |
| 2026-05-07 11:43 | 34.86418 | 136.80855 | 17 ft | 1 kts | 350° |
| 2026-05-07 11:43 | 34.86431 | 136.80852 | 17 ft | 2 kts | 350° |
| 2026-05-07 11:44 | 34.86456 | 136.80844 | 17 ft | 4 kts | 333° |
| 2026-05-07 11:44 | 34.86476 | 136.80811 | 17 ft | 5 kts | 287° |
| 2026-05-07 11:44 | 34.86480 | 136.80759 | 17 ft | 6 kts | 295° |
| 2026-05-07 11:44 | 34.86523 | 136.80733 | 17 ft | 7 kts | 348° |
| 2026-05-07 11:45 | 34.86580 | 136.80719 | 17 ft | 9 kts | 349° |
| 2026-05-07 11:45 | 34.86647 | 136.80704 | 17 ft | 10 kts | 349° |
| 2026-05-07 11:45 | 34.86717 | 136.80685 | 17 ft | 10 kts | 348° |
| 2026-05-07 11:45 | 34.86794 | 136.80667 | 17 ft | 11 kts | 348° |
| 2026-05-07 11:46 | 34.86874 | 136.80647 | 17 ft | 12 kts | 348° |
| 2026-05-07 11:46 | 34.86958 | 136.80626 | 17 ft | 12 kts | 348° |
| 2026-05-07 11:46 | 34.87046 | 136.80605 | 17 ft | 13 kts | 348° |
| 2026-05-07 11:46 | 34.87135 | 136.80583 | 17 ft | 13 kts | 349° |
| 2026-05-07 11:47 | 34.87228 | 136.80562 | 17 ft | 13 kts | 349° |
| 2026-05-07 11:47 | 34.87308 | 136.80542 | 17 ft | 5 kts | 346° |
| 2026-05-07 11:47 | 34.87330 | 136.80501 | 17 ft | 7 kts | 277° |
| 2026-05-07 11:47 | 34.87326 | 136.80435 | 17 ft | 8 kts | 261° |
| 2026-05-07 11:48 | 34.87317 | 136.80362 | 17 ft | 9 kts | 261° |
| 2026-05-07 11:48 | 34.87306 | 136.80283 | 17 ft | 9 kts | 261° |
| 2026-05-07 11:48 | 34.87297 | 136.80220 | 17 ft | 2 kts | 258° |
| 2026-05-07 11:48 | 34.87282 | 136.80205 | 17 ft | 3 kts | 202° |
| 2026-05-07 11:49 | 34.87254 | 136.80203 | 17 ft | 2 kts | 173° |
| 2026-05-07 11:49 | 34.87250 | 136.80205 | 17 ft | 1 kts | 173° |
| 2026-05-07 11:49 | 34.87210 | 136.80211 | 17 ft | 22 kts | 171° |
| 2026-05-07 11:49 | 34.86829 | 136.80302 | 17 ft | 86 kts | 168° |
| 2026-05-07 11:50 | 34.86049 | 136.80493 | 17 ft | 140 kts | 168° |
| 2026-05-07 11:50 | 34.84950 | 136.80743 | 43 ft | 181 kts | 171° |
| 2026-05-07 11:50 | 34.83661 | 136.80972 | 504 ft | 188 kts | 173° |
| 2026-05-07 11:50 | 34.82337 | 136.80998 | 997 ft | 198 kts | 188° |
| 2026-05-07 11:51 | 34.80920 | 136.80650 | 1246 ft | 224 kts | 194° |
| 2026-05-07 11:51 | 34.79353 | 136.80104 | 1798 ft | 235 kts | 200° |
| 2026-05-07 11:51 | 34.77864 | 136.79416 | 2416 ft | 234 kts | 202° |
| 2026-05-07 11:51 | 34.76281 | 136.78682 | 2688 ft | 250 kts | 201° |
| 2026-05-07 11:52 | 34.74598 | 136.77943 | 3057 ft | 260 kts | 201° |
| 2026-05-07 11:52 | 34.72889 | 136.77229 | 3611 ft | 262 kts | 200° |
| 2026-05-07 11:52 | 34.71148 | 136.76520 | 4185 ft | 264 kts | 200° |
| 2026-05-07 11:52 | 34.69394 | 136.75818 | 4747 ft | 265 kts | 200° |
| 2026-05-07 11:53 | 34.67651 | 136.75127 | 5284 ft | 267 kts | 200° |
| 2026-05-07 11:53 | 34.65863 | 136.74422 | 5804 ft | 269 kts | 200° |
| 2026-05-07 11:53 | 34.64075 | 136.73720 | 6313 ft | 272 kts | 200° |
| 2026-05-07 11:53 | 34.62280 | 136.73015 | 6819 ft | 273 kts | 200° |
| 2026-05-07 11:54 | 34.60475 | 136.72307 | 7341 ft | 274 kts | 200° |
| 2026-05-07 11:54 | 34.58672 | 136.71600 | 7862 ft | 274 kts | 201° |
| 2026-05-07 11:54 | 34.56850 | 136.70892 | 8377 ft | 275 kts | 199° |
| 2026-05-07 11:54 | 34.54987 | 136.70271 | 8905 ft | 276 kts | 198° |
| 2026-05-07 11:55 | 34.53143 | 136.69672 | 9408 ft | 277 kts | 198° |
| 2026-05-07 11:55 | 34.51261 | 136.69061 | 9911 ft | 278 kts | 198° |
| 2026-05-07 11:55 | 34.49383 | 136.68453 | 10309 ft | 282 kts | 198° |
| 2026-05-07 11:55 | 34.47446 | 136.67822 | 10517 ft | 294 kts | 198° |
| 2026-05-07 11:56 | 34.45430 | 136.67168 | 10724 ft | 306 kts | 198° |
| 2026-05-07 11:56 | 34.43310 | 136.66481 | 10932 ft | 317 kts | 198° |
| 2026-05-07 11:56 | 34.41139 | 136.65781 | 11134 ft | 329 kts | 198° |
| 2026-05-07 11:56 | 34.38879 | 136.65051 | 11334 ft | 340 kts | 198° |
| 2026-05-07 11:57 | 34.36543 | 136.64298 | 11529 ft | 351 kts | 198° |
| 2026-05-07 11:57 | 34.34159 | 136.63530 | 11719 ft | 362 kts | 198° |
| 2026-05-07 11:57 | 34.31668 | 136.62730 | 11953 ft | 371 kts | 198° |
| 2026-05-07 11:57 | 34.29164 | 136.61926 | 12358 ft | 374 kts | 198° |
| 2026-05-07 11:58 | 34.26623 | 136.61110 | 12792 ft | 376 kts | 198° |
| 2026-05-07 11:58 | 34.24099 | 136.60298 | 13182 ft | 379 kts | 198° |
| 2026-05-07 11:58 | 34.21552 | 136.59464 | 13587 ft | 380 kts | 201° |
| 2026-05-07 11:58 | 34.19108 | 136.58234 | 13975 ft | 380 kts | 211° |
| 2026-05-07 11:59 | 34.16862 | 136.56505 | 14357 ft | 380 kts | 220° |
| 2026-05-07 11:59 | 34.14852 | 136.54434 | 14737 ft | 382 kts | 224° |
| 2026-05-07 11:59 | 34.12870 | 136.52287 | 15116 ft | 384 kts | 224° |
| 2026-05-07 11:59 | 34.10866 | 136.50105 | 15502 ft | 386 kts | 224° |
| 2026-05-07 12:00 | 34.08872 | 136.47942 | 15892 ft | 388 kts | 224° |
| 2026-05-07 12:00 | 34.06867 | 136.45770 | 16236 ft | 391 kts | 224° |
| 2026-05-07 12:00 | 34.04823 | 136.43561 | 16585 ft | 394 kts | 224° |
| 2026-05-07 12:00 | 34.02779 | 136.41354 | 16923 ft | 397 kts | 224° |
| 2026-05-07 12:01 | 34.00720 | 136.39136 | 17281 ft | 399 kts | 224° |
| 2026-05-07 12:01 | 33.98655 | 136.36911 | 17639 ft | 401 kts | 224° |
| 2026-05-07 12:01 | 33.96562 | 136.34659 | 17992 ft | 403 kts | 224° |
| 2026-05-07 12:01 | 33.94482 | 136.32423 | 18336 ft | 405 kts | 224° |
| 2026-05-07 12:02 | 33.92370 | 136.30153 | 18684 ft | 408 kts | 224° |
| 2026-05-07 12:02 | 33.90267 | 136.27896 | 19064 ft | 409 kts | 224° |
| 2026-05-07 12:02 | 33.88123 | 136.25597 | 19450 ft | 410 kts | 224° |
| 2026-05-07 12:02 | 33.86012 | 136.23334 | 19814 ft | 412 kts | 224° |
| 2026-05-07 12:03 | 33.83854 | 136.21022 | 20162 ft | 414 kts | 224° |
| 2026-05-07 12:03 | 33.81686 | 136.18703 | 20504 ft | 415 kts | 224° |
| 2026-05-07 12:03 | 33.79546 | 136.16414 | 20838 ft | 417 kts | 224° |
| 2026-05-07 12:03 | 33.77376 | 136.14094 | 21168 ft | 419 kts | 224° |
| 2026-05-07 12:04 | 33.75201 | 136.11771 | 21503 ft | 420 kts | 224° |
| 2026-05-07 12:04 | 33.73002 | 136.09424 | 21828 ft | 422 kts | 224° |
| 2026-05-07 12:04 | 33.70814 | 136.07089 | 22142 ft | 424 kts | 224° |
| 2026-05-07 12:04 | 33.68591 | 136.04723 | 22447 ft | 426 kts | 224° |
| 2026-05-07 12:05 | 33.66368 | 136.02353 | 22767 ft | 427 kts | 224° |
| 2026-05-07 12:05 | 33.64137 | 135.99980 | 23045 ft | 429 kts | 224° |
| 2026-05-07 12:05 | 33.61899 | 135.97600 | 23349 ft | 430 kts | 224° |
| 2026-05-07 12:05 | 33.59639 | 135.95197 | 23652 ft | 432 kts | 224° |
| 2026-05-07 12:06 | 33.57395 | 135.92815 | 23939 ft | 433 kts | 224° |
| 2026-05-07 12:06 | 33.55122 | 135.90404 | 24195 ft | 435 kts | 224° |
| 2026-05-07 12:06 | 33.52849 | 135.87994 | 24473 ft | 436 kts | 224° |
| 2026-05-07 12:06 | 33.50595 | 135.85606 | 24739 ft | 438 kts | 224° |
| 2026-05-07 12:07 | 33.48309 | 135.83186 | 24968 ft | 440 kts | 224° |
| 2026-05-07 12:07 | 33.46003 | 135.80747 | 25216 ft | 442 kts | 224° |
| 2026-05-07 12:07 | 33.43684 | 135.78317 | 25462 ft | 443 kts | 223° |
| 2026-05-07 12:07 | 33.41329 | 135.75951 | 25713 ft | 445 kts | 222° |
| 2026-05-07 12:08 | 33.38974 | 135.73614 | 25942 ft | 446 kts | 221° |
| 2026-05-07 12:08 | 33.36578 | 135.71242 | 26167 ft | 447 kts | 222° |
| 2026-05-07 12:08 | 33.34158 | 135.68845 | 26418 ft | 448 kts | 222° |
| 2026-05-07 12:08 | 33.31778 | 135.66486 | 26659 ft | 449 kts | 222° |
| 2026-05-07 12:09 | 33.29363 | 135.64090 | 26881 ft | 450 kts | 222° |
| 2026-05-07 12:09 | 33.26961 | 135.61708 | 27088 ft | 451 kts | 222° |
| 2026-05-07 12:09 | 33.24569 | 135.59335 | 27283 ft | 452 kts | 222° |
| 2026-05-07 12:09 | 33.22135 | 135.56923 | 27466 ft | 454 kts | 222° |
| 2026-05-07 12:10 | 33.19708 | 135.54518 | 27658 ft | 455 kts | 222° |
| 2026-05-07 12:10 | 33.17274 | 135.52109 | 27863 ft | 456 kts | 222° |
| 2026-05-07 12:10 | 33.14826 | 135.49687 | 28079 ft | 456 kts | 222° |
| 2026-05-07 12:10 | 33.12407 | 135.47296 | 28353 ft | 455 kts | 222° |
| 2026-05-07 12:11 | 33.09958 | 135.44876 | 28643 ft | 454 kts | 222° |
| 2026-05-07 12:11 | 33.07549 | 135.42497 | 28928 ft | 452 kts | 222° |
| 2026-05-07 12:11 | 33.05136 | 135.40118 | 29213 ft | 451 kts | 222° |
| 2026-05-07 12:11 | 33.02736 | 135.37752 | 29496 ft | 449 kts | 222° |
| 2026-05-07 12:12 | 33.00334 | 135.35387 | 29764 ft | 448 kts | 222° |
| 2026-05-07 12:12 | 32.97905 | 135.32997 | 30017 ft | 447 kts | 221° |
| 2026-05-07 12:12 | 32.95519 | 135.30647 | 30222 ft | 448 kts | 222° |
| 2026-05-07 12:12 | 32.93129 | 135.28297 | 30393 ft | 449 kts | 221° |
| 2026-05-07 12:13 | 32.90711 | 135.25923 | 30561 ft | 449 kts | 222° |
| 2026-05-07 12:13 | 32.88308 | 135.23566 | 30726 ft | 450 kts | 222° |
| 2026-05-07 12:13 | 32.85883 | 135.21187 | 30872 ft | 452 kts | 222° |
| 2026-05-07 12:13 | 32.83473 | 135.18825 | 31023 ft | 453 kts | 222° |
| 2026-05-07 12:14 | 32.81020 | 135.16423 | 31175 ft | 454 kts | 222° |
| 2026-05-07 12:14 | 32.78604 | 135.14055 | 31333 ft | 454 kts | 223° |
| 2026-05-07 12:14 | 32.76224 | 135.11563 | 31489 ft | 454 kts | 225° |
| 2026-05-07 12:14 | 32.73961 | 135.08963 | 31638 ft | 454 kts | 227° |
| 2026-05-07 12:15 | 32.71733 | 135.06346 | 31783 ft | 454 kts | 227° |
| 2026-05-07 12:15 | 32.69497 | 135.03725 | 31911 ft | 455 kts | 227° |
| 2026-05-07 12:15 | 32.67236 | 135.01074 | 31919 ft | 456 kts | 227° |
| 2026-05-07 12:16 | 32.62747 | 134.95819 | 31922 ft | 455 kts | 227° |
| 2026-05-07 12:16 | 32.58233 | 134.90540 | 31925 ft | 456 kts | 227° |
| 2026-05-07 12:17 | 32.53702 | 134.85248 | 31922 ft | 456 kts | 227° |
| 2026-05-07 12:17 | 32.49196 | 134.79993 | 31923 ft | 456 kts | 227° |
| 2026-05-07 12:18 | 32.44701 | 134.74759 | 31921 ft | 457 kts | 227° |
| 2026-05-07 12:18 | 32.40156 | 134.69473 | 31920 ft | 458 kts | 227° |
| 2026-05-07 12:19 | 32.35607 | 134.64191 | 31916 ft | 458 kts | 227° |
| 2026-05-07 12:19 | 32.31065 | 134.58925 | 31918 ft | 458 kts | 227° |
| 2026-05-07 12:20 | 32.26527 | 134.53671 | 31913 ft | 457 kts | 227° |
| 2026-05-07 12:20 | 32.21999 | 134.48438 | 31909 ft | 458 kts | 227° |
| 2026-05-07 12:21 | 32.17423 | 134.43155 | 31902 ft | 459 kts | 227° |
| 2026-05-07 12:21 | 32.12861 | 134.37898 | 31906 ft | 460 kts | 227° |
| 2026-05-07 12:22 | 32.08313 | 134.32665 | 31912 ft | 460 kts | 227° |
| 2026-05-07 12:22 | 32.03737 | 134.27406 | 31912 ft | 460 kts | 227° |
| 2026-05-07 12:23 | 31.99144 | 134.22136 | 31914 ft | 460 kts | 227° |
| 2026-05-07 12:23 | 31.94561 | 134.16887 | 31914 ft | 460 kts | 227° |
| 2026-05-07 12:24 | 31.90012 | 134.11682 | 31914 ft | 460 kts | 227° |
| 2026-05-07 12:24 | 31.85410 | 134.06426 | 31914 ft | 459 kts | 227° |
| 2026-05-07 12:25 | 31.80816 | 134.01189 | 31914 ft | 458 kts | 228° |
| 2026-05-07 12:25 | 31.76262 | 133.95999 | 31916 ft | 458 kts | 228° |
| 2026-05-07 12:26 | 31.71709 | 133.90819 | 31915 ft | 457 kts | 228° |
| 2026-05-07 12:26 | 31.67122 | 133.85608 | 31913 ft | 457 kts | 228° |
| 2026-05-07 12:27 | 31.62572 | 133.80447 | 31912 ft | 456 kts | 228° |
| 2026-05-07 12:27 | 31.58004 | 133.75275 | 31915 ft | 457 kts | 228° |
| 2026-05-07 12:28 | 31.53451 | 133.70125 | 31913 ft | 455 kts | 228° |
| 2026-05-07 12:28 | 31.48890 | 133.64975 | 31909 ft | 455 kts | 228° |
| 2026-05-07 12:29 | 31.44334 | 133.59836 | 31910 ft | 455 kts | 228° |
| 2026-05-07 12:29 | 31.39809 | 133.54741 | 31910 ft | 454 kts | 228° |
| 2026-05-07 12:30 | 31.35263 | 133.49629 | 31912 ft | 454 kts | 228° |
| 2026-05-07 12:30 | 31.30704 | 133.44511 | 31914 ft | 453 kts | 228° |
| 2026-05-07 12:31 | 31.26150 | 133.39406 | 31915 ft | 453 kts | 228° |
| 2026-05-07 12:31 | 31.21624 | 133.34337 | 31918 ft | 452 kts | 228° |
| 2026-05-07 12:32 | 31.17096 | 133.29272 | 31916 ft | 452 kts | 228° |
| 2026-05-07 12:32 | 31.12539 | 133.24185 | 31916 ft | 451 kts | 228° |
| 2026-05-07 12:33 | 31.05764 | 133.16634 | 31918 ft | 450 kts | 228° |
| 2026-05-07 12:33 | 31.01253 | 133.11615 | 31916 ft | 450 kts | 228° |
| 2026-05-07 12:34 | 30.96723 | 133.06580 | 31917 ft | 450 kts | 228° |
| 2026-05-07 12:34 | 30.92198 | 133.01558 | 31915 ft | 450 kts | 228° |
| 2026-05-07 12:35 | 30.87676 | 132.96547 | 31918 ft | 450 kts | 228° |
| 2026-05-07 12:35 | 30.83125 | 132.91510 | 31919 ft | 450 kts | 228° |
| 2026-05-07 12:36 | 30.78586 | 132.86493 | 31919 ft | 451 kts | 228° |
| 2026-05-07 12:36 | 30.74049 | 132.81486 | 31924 ft | 452 kts | 228° |
| 2026-05-07 12:37 | 30.69472 | 132.76443 | 31924 ft | 452 kts | 228° |
| 2026-05-07 12:37 | 30.64907 | 132.71420 | 31923 ft | 452 kts | 228° |
| 2026-05-07 12:38 | 30.60371 | 132.66434 | 31927 ft | 453 kts | 228° |
| 2026-05-07 12:38 | 30.55796 | 132.61412 | 31929 ft | 454 kts | 228° |
| 2026-05-07 12:39 | 30.51191 | 132.56364 | 31929 ft | 453 kts | 228° |
| 2026-05-07 12:39 | 30.46636 | 132.51381 | 31933 ft | 454 kts | 228° |
| 2026-05-07 12:40 | 30.42040 | 132.46355 | 31933 ft | 454 kts | 228° |
| 2026-05-07 12:40 | 30.37424 | 132.41318 | 31936 ft | 455 kts | 228° |
| 2026-05-07 12:41 | 30.32831 | 132.36310 | 31938 ft | 454 kts | 228° |
| 2026-05-07 12:41 | 30.28241 | 132.31313 | 31944 ft | 454 kts | 227° |
| 2026-05-07 12:42 | 30.23650 | 132.26323 | 31948 ft | 455 kts | 227° |
| 2026-05-07 12:42 | 30.19041 | 132.21320 | 31951 ft | 455 kts | 227° |
| 2026-05-07 12:43 | 30.14426 | 132.16315 | 31952 ft | 455 kts | 227° |
| 2026-05-07 12:43 | 30.09802 | 132.11308 | 31954 ft | 455 kts | 227° |
| 2026-05-07 12:44 | 30.05208 | 132.06342 | 31955 ft | 455 kts | 227° |
| 2026-05-07 12:44 | 30.00578 | 132.01343 | 31956 ft | 455 kts | 227° |
| 2026-05-07 12:45 | 29.95950 | 131.96353 | 31953 ft | 455 kts | 227° |
| 2026-05-07 12:45 | 29.91330 | 131.91377 | 31956 ft | 455 kts | 227° |
| 2026-05-07 12:46 | 29.86718 | 131.86418 | 31951 ft | 454 kts | 228° |
| 2026-05-07 12:46 | 29.82343 | 131.81177 | 31953 ft | 452 kts | 233° |
| 2026-05-07 12:47 | 29.78453 | 131.75545 | 31953 ft | 450 kts | 238° |
| 2026-05-07 12:47 | 29.74884 | 131.69643 | 31958 ft | 450 kts | 239° |
| 2026-05-07 12:48 | 29.71324 | 131.63744 | 31958 ft | 450 kts | 239° |
| 2026-05-07 12:48 | 29.67761 | 131.57843 | 31954 ft | 450 kts | 239° |
| 2026-05-07 12:49 | 29.64212 | 131.51975 | 31957 ft | 449 kts | 239° |
| 2026-05-07 12:49 | 29.60656 | 131.46098 | 31958 ft | 449 kts | 239° |
| 2026-05-07 12:50 | 29.57072 | 131.40183 | 31962 ft | 449 kts | 239° |
| 2026-05-07 12:50 | 29.53514 | 131.34322 | 31961 ft | 448 kts | 238° |
| 2026-05-07 12:51 | 29.49967 | 131.28484 | 31960 ft | 448 kts | 238° |
| 2026-05-07 12:51 | 29.46405 | 131.22633 | 31962 ft | 448 kts | 238° |
| 2026-05-07 12:52 | 29.42827 | 131.16760 | 31963 ft | 448 kts | 238° |
| 2026-05-07 12:52 | 29.39257 | 131.10912 | 31964 ft | 448 kts | 238° |
| 2026-05-07 12:53 | 29.35704 | 131.05098 | 31966 ft | 448 kts | 238° |
| 2026-05-07 12:53 | 29.32125 | 130.99251 | 31969 ft | 448 kts | 238° |
| 2026-05-07 12:54 | 29.28536 | 130.93394 | 31969 ft | 448 kts | 238° |
| 2026-05-07 12:54 | 29.24961 | 130.87572 | 31971 ft | 448 kts | 238° |
| 2026-05-07 12:55 | 29.21388 | 130.81758 | 31970 ft | 448 kts | 238° |
| 2026-05-07 12:55 | 29.17797 | 130.75925 | 31967 ft | 448 kts | 238° |
| 2026-05-07 12:56 | 29.14227 | 130.70132 | 31969 ft | 449 kts | 238° |
| 2026-05-07 12:56 | 29.10625 | 130.64299 | 31974 ft | 449 kts | 238° |
| 2026-05-07 12:57 | 29.07039 | 130.58495 | 31977 ft | 450 kts | 238° |
| 2026-05-07 12:57 | 29.03430 | 130.52669 | 31976 ft | 449 kts | 238° |
| 2026-05-07 12:58 | 28.99809 | 130.46825 | 31974 ft | 449 kts | 238° |
| 2026-05-07 12:58 | 28.96203 | 130.41020 | 31970 ft | 450 kts | 238° |
| 2026-05-07 12:59 | 28.92596 | 130.35213 | 31970 ft | 450 kts | 238° |
| 2026-05-07 12:59 | 28.88984 | 130.29414 | 31970 ft | 450 kts | 238° |
| 2026-05-07 13:00 | 28.85360 | 130.23598 | 31964 ft | 451 kts | 238° |
| 2026-05-07 13:00 | 28.81724 | 130.17770 | 31959 ft | 451 kts | 238° |
| 2026-05-07 13:01 | 28.78093 | 130.11963 | 31964 ft | 451 kts | 238° |
| 2026-05-07 13:01 | 28.74439 | 130.06130 | 31959 ft | 451 kts | 238° |
| 2026-05-07 13:02 | 28.70820 | 130.00356 | 31956 ft | 451 kts | 238° |
| 2026-05-07 13:02 | 28.67168 | 129.94536 | 31961 ft | 451 kts | 238° |
| 2026-05-07 13:03 | 28.63536 | 129.88760 | 31963 ft | 451 kts | 238° |
| 2026-05-07 13:03 | 28.59888 | 129.82960 | 31968 ft | 451 kts | 238° |
| 2026-05-07 13:04 | 28.56226 | 129.77151 | 31966 ft | 451 kts | 238° |
| 2026-05-07 13:04 | 28.52575 | 129.71373 | 31966 ft | 451 kts | 238° |
| 2026-05-07 13:05 | 28.48893 | 129.65546 | 31970 ft | 452 kts | 238° |
| 2026-05-07 13:05 | 28.45186 | 129.59723 | 31970 ft | 452 kts | 237° |
| 2026-05-07 13:06 | 28.41177 | 129.54215 | 31972 ft | 453 kts | 233° |
| 2026-05-07 13:06 | 28.37046 | 129.48782 | 31964 ft | 453 kts | 233° |
| 2026-05-07 13:07 | 28.32907 | 129.43350 | 31962 ft | 452 kts | 233° |
| 2026-05-07 13:07 | 28.28761 | 129.37918 | 31965 ft | 452 kts | 233° |
| 2026-05-07 13:08 | 28.24651 | 129.32539 | 31967 ft | 452 kts | 233° |
| 2026-05-07 13:08 | 28.20510 | 129.27129 | 31962 ft | 452 kts | 233° |
| 2026-05-07 13:09 | 28.16401 | 129.21770 | 31960 ft | 453 kts | 233° |
| 2026-05-07 13:09 | 28.12264 | 129.16377 | 31958 ft | 452 kts | 232° |
| 2026-05-07 13:10 | 28.08144 | 129.11018 | 31957 ft | 452 kts | 232° |
| 2026-05-07 13:10 | 28.04031 | 129.05673 | 31958 ft | 452 kts | 233° |
| 2026-05-07 13:11 | 27.99890 | 129.00297 | 31956 ft | 451 kts | 233° |
| 2026-05-07 13:11 | 27.95770 | 128.94954 | 31955 ft | 451 kts | 233° |
| 2026-05-07 13:12 | 27.91627 | 128.89592 | 31958 ft | 451 kts | 233° |
| 2026-05-07 13:12 | 27.87489 | 128.84238 | 31957 ft | 452 kts | 232° |
| 2026-05-07 13:13 | 27.83348 | 128.78893 | 31961 ft | 452 kts | 233° |
| 2026-05-07 13:13 | 27.79223 | 128.73572 | 31955 ft | 452 kts | 232° |
| 2026-05-07 13:14 | 27.75089 | 128.68243 | 31960 ft | 452 kts | 233° |
| 2026-05-07 13:14 | 27.70955 | 128.62927 | 31957 ft | 452 kts | 232° |
| 2026-05-07 13:15 | 27.66789 | 128.57575 | 31967 ft | 453 kts | 233° |
| 2026-05-07 13:15 | 27.62670 | 128.52290 | 31967 ft | 453 kts | 233° |
| 2026-05-07 13:16 | 27.58510 | 128.46957 | 31969 ft | 452 kts | 233° |
| 2026-05-07 13:16 | 27.54340 | 128.41617 | 31965 ft | 452 kts | 233° |
| 2026-05-07 13:17 | 27.50186 | 128.36304 | 31967 ft | 452 kts | 232° |
| 2026-05-07 13:17 | 27.46035 | 128.31004 | 31968 ft | 452 kts | 232° |
| 2026-05-07 13:18 | 27.41878 | 128.25703 | 31969 ft | 453 kts | 232° |
| 2026-05-07 13:18 | 27.37729 | 128.20419 | 31969 ft | 453 kts | 232° |
| 2026-05-07 13:19 | 27.33554 | 128.15108 | 31971 ft | 452 kts | 232° |
| 2026-05-07 13:19 | 27.29393 | 128.09817 | 31972 ft | 453 kts | 232° |
| 2026-05-07 13:20 | 27.25201 | 128.04497 | 31975 ft | 453 kts | 232° |
| 2026-05-07 13:20 | 27.21038 | 127.99223 | 31977 ft | 453 kts | 232° |
| 2026-05-07 13:21 | 27.16867 | 127.93941 | 31974 ft | 452 kts | 232° |
| 2026-05-07 13:21 | 27.12700 | 127.88672 | 31975 ft | 453 kts | 232° |
| 2026-05-07 13:22 | 27.08528 | 127.83404 | 31975 ft | 453 kts | 232° |
| 2026-05-07 13:22 | 27.04336 | 127.78114 | 31975 ft | 454 kts | 232° |
| 2026-05-07 13:23 | 27.00160 | 127.72852 | 31976 ft | 454 kts | 232° |
| 2026-05-07 13:23 | 26.95951 | 127.67557 | 31977 ft | 453 kts | 232° |
| 2026-05-07 13:24 | 26.91762 | 127.62293 | 31979 ft | 454 kts | 232° |
| 2026-05-07 13:24 | 26.87575 | 127.57034 | 31979 ft | 453 kts | 232° |
| 2026-05-07 13:25 | 26.83378 | 127.51775 | 31978 ft | 454 kts | 232° |
| 2026-05-07 13:25 | 26.79179 | 127.46514 | 31977 ft | 454 kts | 232° |
| 2026-05-07 13:26 | 26.74983 | 127.41268 | 31972 ft | 454 kts | 232° |
| 2026-05-07 13:26 | 26.70750 | 127.35979 | 31973 ft | 454 kts | 232° |
| 2026-05-07 13:27 | 26.66558 | 127.30747 | 31978 ft | 455 kts | 232° |
| 2026-05-07 13:27 | 26.62336 | 127.25485 | 31977 ft | 456 kts | 232° |
| 2026-05-07 13:28 | 26.58100 | 127.20210 | 31980 ft | 456 kts | 232° |
| 2026-05-07 13:28 | 26.53853 | 127.14931 | 31977 ft | 456 kts | 231° |
| 2026-05-07 13:29 | 26.49606 | 127.09657 | 31977 ft | 456 kts | 232° |
| 2026-05-07 13:29 | 26.45374 | 127.04410 | 31979 ft | 457 kts | 232° |
| 2026-05-07 13:30 | 26.41143 | 126.99167 | 31979 ft | 456 kts | 232° |
| 2026-05-07 13:30 | 26.36893 | 126.93906 | 31980 ft | 457 kts | 232° |
| 2026-05-07 13:31 | 26.32649 | 126.88662 | 31975 ft | 457 kts | 232° |
| 2026-05-07 13:31 | 26.28368 | 126.83377 | 31976 ft | 458 kts | 232° |
| 2026-05-07 13:32 | 26.24090 | 126.78101 | 31969 ft | 458 kts | 232° |
| 2026-05-07 13:32 | 26.19848 | 126.72881 | 31967 ft | 458 kts | 232° |
| 2026-05-07 13:33 | 26.15552 | 126.67593 | 31973 ft | 458 kts | 232° |
| 2026-05-07 13:33 | 26.11271 | 126.62332 | 31972 ft | 459 kts | 232° |
| 2026-05-07 13:34 | 26.04879 | 126.54493 | 31971 ft | 458 kts | 232° |
| 2026-05-07 13:35 | 26.00592 | 126.49242 | 31967 ft | 458 kts | 232° |
| 2026-05-07 13:35 | 25.96314 | 126.44006 | 31967 ft | 458 kts | 232° |
| 2026-05-07 13:36 | 25.92053 | 126.38799 | 31965 ft | 458 kts | 231° |
| 2026-05-07 13:36 | 25.87756 | 126.33553 | 31963 ft | 459 kts | 231° |
| 2026-05-07 13:37 | 25.83475 | 126.28333 | 31962 ft | 460 kts | 231° |
| 2026-05-07 13:37 | 25.79161 | 126.23075 | 31959 ft | 460 kts | 231° |
| 2026-05-07 13:38 | 25.74864 | 126.17850 | 31957 ft | 460 kts | 231° |
| 2026-05-07 13:38 | 25.70546 | 126.12605 | 31957 ft | 459 kts | 231° |
| 2026-05-07 13:39 | 25.66250 | 126.07391 | 31957 ft | 460 kts | 231° |
| 2026-05-07 13:39 | 25.61942 | 126.02169 | 31957 ft | 459 kts | 231° |
| 2026-05-07 13:40 | 25.57651 | 125.96973 | 31957 ft | 459 kts | 231° |
| 2026-05-07 13:40 | 25.53332 | 125.91748 | 31957 ft | 459 kts | 231° |
| 2026-05-07 13:41 | 25.49026 | 125.86546 | 31956 ft | 460 kts | 231° |
| 2026-05-07 13:41 | 25.44726 | 125.81355 | 31956 ft | 460 kts | 231° |
| 2026-05-07 13:42 | 25.40396 | 125.76140 | 31956 ft | 461 kts | 231° |
| 2026-05-07 13:42 | 25.36069 | 125.70929 | 31956 ft | 461 kts | 231° |
| 2026-05-07 13:43 | 25.31723 | 125.65706 | 31957 ft | 461 kts | 231° |
| 2026-05-07 13:43 | 25.27379 | 125.60490 | 31957 ft | 460 kts | 231° |
| 2026-05-07 13:44 | 25.23106 | 125.55269 | 31957 ft | 461 kts | 231° |
| 2026-05-07 13:44 | 25.18833 | 125.49987 | 31957 ft | 460 kts | 232° |
| 2026-05-07 13:45 | 25.14562 | 125.44724 | 31957 ft | 460 kts | 231° |
| 2026-05-07 13:45 | 25.10314 | 125.39498 | 31957 ft | 460 kts | 231° |
| 2026-05-07 13:46 | 25.06020 | 125.34226 | 31957 ft | 460 kts | 231° |
| 2026-05-07 13:46 | 25.01761 | 125.29005 | 31957 ft | 461 kts | 231° |
| 2026-05-07 13:47 | 24.97447 | 125.23723 | 31957 ft | 462 kts | 231° |
| 2026-05-07 13:47 | 24.93177 | 125.18503 | 31957 ft | 461 kts | 231° |
| 2026-05-07 13:48 | 24.88882 | 125.13254 | 31957 ft | 460 kts | 231° |
| 2026-05-07 13:48 | 24.84593 | 125.08015 | 31956 ft | 461 kts | 231° |
| 2026-05-07 13:49 | 24.80291 | 125.02771 | 31953 ft | 461 kts | 231° |
| 2026-05-07 13:49 | 24.75991 | 124.97536 | 31951 ft | 461 kts | 231° |
| 2026-05-07 13:50 | 24.71724 | 124.92345 | 31949 ft | 461 kts | 231° |
| 2026-05-07 13:50 | 24.67431 | 124.87131 | 31949 ft | 461 kts | 231° |
| 2026-05-07 13:51 | 24.63111 | 124.81889 | 31949 ft | 461 kts | 231° |
| 2026-05-07 13:51 | 24.58828 | 124.76694 | 31947 ft | 462 kts | 231° |
| 2026-05-07 13:52 | 24.54499 | 124.71452 | 31947 ft | 462 kts | 231° |
| 2026-05-07 13:52 | 24.50171 | 124.66216 | 31943 ft | 462 kts | 231° |
| 2026-05-07 13:53 | 24.45864 | 124.61012 | 31942 ft | 463 kts | 231° |
| 2026-05-07 13:53 | 24.41525 | 124.55776 | 31937 ft | 463 kts | 231° |
| 2026-05-07 13:54 | 24.37192 | 124.50553 | 31934 ft | 463 kts | 231° |
| 2026-05-07 13:54 | 24.32869 | 124.45346 | 31935 ft | 463 kts | 231° |
| 2026-05-07 13:55 | 24.28531 | 124.40128 | 31938 ft | 463 kts | 231° |
| 2026-05-07 13:55 | 24.24203 | 124.34926 | 31936 ft | 464 kts | 231° |
| 2026-05-07 13:56 | 24.19865 | 124.29719 | 31938 ft | 464 kts | 230° |
| 2026-05-07 13:56 | 24.15483 | 124.24465 | 31936 ft | 465 kts | 231° |
| 2026-05-07 13:57 | 24.11158 | 124.19286 | 31937 ft | 465 kts | 230° |
| 2026-05-07 13:57 | 24.06753 | 124.14017 | 31936 ft | 465 kts | 230° |
| 2026-05-07 13:58 | 24.02393 | 124.08807 | 31937 ft | 465 kts | 230° |
| 2026-05-07 13:58 | 23.98025 | 124.03592 | 31935 ft | 465 kts | 231° |
| 2026-05-07 13:59 | 23.93927 | 123.98136 | 31934 ft | 462 kts | 236° |
| 2026-05-07 13:59 | 23.90273 | 123.92373 | 31937 ft | 462 kts | 239° |
| 2026-05-07 14:00 | 23.86679 | 123.86594 | 31934 ft | 463 kts | 238° |
| 2026-05-07 14:00 | 23.83061 | 123.80786 | 31940 ft | 463 kts | 238° |
| 2026-05-07 14:01 | 23.79439 | 123.74976 | 31933 ft | 463 kts | 238° |
| 2026-05-07 14:01 | 23.75846 | 123.69224 | 31937 ft | 463 kts | 238° |
| 2026-05-07 14:02 | 23.72196 | 123.63385 | 31936 ft | 463 kts | 238° |
| 2026-05-07 14:02 | 23.68556 | 123.57568 | 31931 ft | 464 kts | 238° |
| 2026-05-07 14:03 | 23.64916 | 123.51760 | 31935 ft | 464 kts | 238° |
| 2026-05-07 14:03 | 23.61270 | 123.45950 | 31935 ft | 464 kts | 238° |
| 2026-05-07 14:04 | 23.57631 | 123.40158 | 31929 ft | 465 kts | 238° |
| 2026-05-07 14:04 | 23.53972 | 123.34339 | 31932 ft | 465 kts | 238° |
| 2026-05-07 14:05 | 23.50321 | 123.28541 | 31926 ft | 465 kts | 238° |
| 2026-05-07 14:05 | 23.46671 | 123.22747 | 31925 ft | 465 kts | 238° |
| 2026-05-07 14:06 | 23.43020 | 123.16962 | 31925 ft | 465 kts | 238° |
| 2026-05-07 14:06 | 23.39332 | 123.11126 | 31915 ft | 466 kts | 238° |
| 2026-05-07 14:07 | 23.35664 | 123.05326 | 31912 ft | 468 kts | 238° |
| 2026-05-07 14:07 | 23.31958 | 122.99476 | 31911 ft | 468 kts | 238° |
| 2026-05-07 14:08 | 23.28282 | 122.93673 | 31915 ft | 468 kts | 238° |
| 2026-05-07 14:08 | 23.24568 | 122.87818 | 31912 ft | 468 kts | 238° |
| 2026-05-07 14:09 | 23.20879 | 122.82012 | 31915 ft | 468 kts | 238° |
| 2026-05-07 14:09 | 23.17184 | 122.76202 | 31909 ft | 468 kts | 238° |
| 2026-05-07 14:10 | 23.13473 | 122.70377 | 31917 ft | 469 kts | 238° |
| 2026-05-07 14:10 | 23.09771 | 122.64573 | 31917 ft | 469 kts | 238° |
| 2026-05-07 14:11 | 23.06072 | 122.58779 | 31924 ft | 469 kts | 238° |
| 2026-05-07 14:11 | 23.02331 | 122.52925 | 31928 ft | 469 kts | 238° |
| 2026-05-07 14:12 | 22.98613 | 122.47115 | 31923 ft | 470 kts | 238° |
| 2026-05-07 14:12 | 22.94898 | 122.41318 | 31923 ft | 469 kts | 238° |
| 2026-05-07 14:13 | 22.91170 | 122.35503 | 31923 ft | 469 kts | 238° |
| 2026-05-07 14:13 | 22.87468 | 122.29734 | 31927 ft | 470 kts | 238° |
| 2026-05-07 14:14 | 22.83732 | 122.23923 | 31932 ft | 469 kts | 238° |
| 2026-05-07 14:14 | 22.80011 | 122.18140 | 31932 ft | 470 kts | 238° |
| 2026-05-07 14:15 | 22.76250 | 122.12303 | 31936 ft | 471 kts | 238° |
| 2026-05-07 14:15 | 22.72518 | 122.06516 | 31932 ft | 471 kts | 238° |
| 2026-05-07 14:16 | 22.68742 | 122.00664 | 31934 ft | 472 kts | 238° |
| 2026-05-07 14:16 | 22.65006 | 121.94887 | 31937 ft | 472 kts | 238° |
| 2026-05-07 14:17 | 22.61221 | 121.89039 | 31941 ft | 472 kts | 238° |
| 2026-05-07 14:17 | 22.57473 | 121.83251 | 31937 ft | 472 kts | 238° |
| 2026-05-07 14:18 | 22.53703 | 121.77438 | 31943 ft | 472 kts | 238° |
| 2026-05-07 14:18 | 22.49933 | 121.71630 | 31946 ft | 472 kts | 238° |
| 2026-05-07 14:19 | 22.46160 | 121.65823 | 31938 ft | 473 kts | 238° |
| 2026-05-07 14:19 | 22.42390 | 121.60027 | 31939 ft | 474 kts | 238° |
| 2026-05-07 14:20 | 22.38586 | 121.54188 | 31952 ft | 474 kts | 238° |
| 2026-05-07 14:20 | 22.34788 | 121.48365 | 31951 ft | 475 kts | 238° |
| 2026-05-07 14:21 | 22.30984 | 121.42539 | 31936 ft | 475 kts | 238° |
| 2026-05-07 14:21 | 22.27177 | 121.36713 | 31935 ft | 475 kts | 238° |
| 2026-05-07 14:22 | 22.23361 | 121.30880 | 31936 ft | 475 kts | 237° |
| 2026-05-07 14:22 | 22.19559 | 121.25073 | 31931 ft | 475 kts | 237° |
| 2026-05-07 14:23 | 22.15750 | 121.19265 | 31936 ft | 476 kts | 237° |
| 2026-05-07 14:23 | 22.11921 | 121.13433 | 31935 ft | 476 kts | 237° |
| 2026-05-07 14:24 | 22.08104 | 121.07626 | 31926 ft | 477 kts | 237° |
| 2026-05-07 14:24 | 22.04252 | 121.01773 | 31923 ft | 477 kts | 237° |
| 2026-05-07 14:25 | 22.00381 | 120.95888 | 31920 ft | 478 kts | 237° |
| 2026-05-07 14:25 | 21.96744 | 120.89948 | 31922 ft | 475 kts | 242° |
| 2026-05-07 14:26 | 21.93738 | 120.83664 | 31918 ft | 472 kts | 249° |
| 2026-05-07 14:26 | 21.91396 | 120.77058 | 31920 ft | 470 kts | 255° |
| 2026-05-07 14:27 | 21.89730 | 120.70283 | 31919 ft | 469 kts | 259° |
| 2026-05-07 14:27 | 21.88250 | 120.63460 | 31918 ft | 470 kts | 259° |
| 2026-05-07 14:28 | 21.86766 | 120.56625 | 31918 ft | 470 kts | 259° |
| 2026-05-07 14:28 | 21.85275 | 120.49790 | 31919 ft | 470 kts | 259° |
| 2026-05-07 14:29 | 21.83787 | 120.42985 | 31914 ft | 470 kts | 259° |
| 2026-05-07 14:29 | 21.82283 | 120.36124 | 31917 ft | 470 kts | 259° |
| 2026-05-07 14:30 | 21.80784 | 120.29304 | 31919 ft | 470 kts | 259° |
| 2026-05-07 14:30 | 21.79289 | 120.22517 | 31918 ft | 469 kts | 259° |
| 2026-05-07 14:31 | 21.77778 | 120.15675 | 31920 ft | 469 kts | 259° |
| 2026-05-07 14:31 | 21.76268 | 120.08855 | 31916 ft | 469 kts | 259° |
| 2026-05-07 14:32 | 21.74756 | 120.02045 | 31918 ft | 470 kts | 259° |
| 2026-05-07 14:32 | 21.73254 | 119.95259 | 31916 ft | 470 kts | 259° |
| 2026-05-07 14:33 | 21.71739 | 119.88423 | 31902 ft | 470 kts | 259° |
| 2026-05-07 14:33 | 21.70220 | 119.81606 | 31904 ft | 471 kts | 259° |
| 2026-05-07 14:34 | 21.68694 | 119.74777 | 31910 ft | 471 kts | 259° |
| 2026-05-07 14:34 | 21.67165 | 119.67953 | 31910 ft | 471 kts | 259° |
| 2026-05-07 14:35 | 21.65636 | 119.61136 | 31908 ft | 470 kts | 259° |
| 2026-05-07 14:35 | 21.64099 | 119.54301 | 31913 ft | 470 kts | 259° |
| 2026-05-07 14:36 | 21.62558 | 119.47463 | 31915 ft | 471 kts | 259° |
| 2026-05-07 14:36 | 21.61025 | 119.40674 | 31918 ft | 472 kts | 258° |
| 2026-05-07 14:37 | 21.59476 | 119.33828 | 31919 ft | 472 kts | 258° |
| 2026-05-07 14:37 | 21.57142 | 119.23550 | 31923 ft | 472 kts | 258° |
| 2026-05-07 14:38 | 21.55592 | 119.16735 | 31923 ft | 471 kts | 258° |
| 2026-05-07 14:38 | 21.54044 | 119.09937 | 31927 ft | 471 kts | 258° |
| 2026-05-07 14:39 | 21.52487 | 119.03120 | 31925 ft | 471 kts | 258° |
| 2026-05-07 14:39 | 21.50921 | 118.96274 | 31923 ft | 472 kts | 258° |
| 2026-05-07 14:40 | 21.49349 | 118.89422 | 31923 ft | 473 kts | 258° |
| 2026-05-07 14:40 | 21.47784 | 118.82613 | 31918 ft | 473 kts | 258° |
| 2026-05-07 14:41 | 21.46210 | 118.75777 | 31915 ft | 473 kts | 258° |
| 2026-05-07 14:41 | 21.44624 | 118.68907 | 31919 ft | 472 kts | 258° |
| 2026-05-07 14:42 | 21.43047 | 118.62083 | 31915 ft | 472 kts | 258° |
| 2026-05-07 14:42 | 21.41466 | 118.55264 | 31920 ft | 473 kts | 258° |
| 2026-05-07 14:43 | 21.39884 | 118.48454 | 31919 ft | 473 kts | 258° |
| 2026-05-07 14:43 | 21.38292 | 118.41619 | 31921 ft | 474 kts | 258° |
| 2026-05-07 14:44 | 21.36702 | 118.34769 | 31918 ft | 474 kts | 258° |
| 2026-05-07 14:44 | 21.35107 | 118.27918 | 31919 ft | 473 kts | 258° |
| 2026-05-07 14:45 | 21.33518 | 118.21117 | 31915 ft | 473 kts | 258° |
| 2026-05-07 14:45 | 21.31912 | 118.14273 | 31916 ft | 473 kts | 258° |
| 2026-05-07 14:46 | 21.30310 | 118.07445 | 31913 ft | 473 kts | 258° |
| 2026-05-07 14:46 | 21.28709 | 118.00644 | 31915 ft | 474 kts | 258° |
| 2026-05-07 14:47 | 21.27092 | 117.93784 | 31915 ft | 474 kts | 258° |
| 2026-05-07 14:47 | 21.25476 | 117.86946 | 31916 ft | 473 kts | 258° |
| 2026-05-07 14:48 | 21.23866 | 117.80148 | 31915 ft | 473 kts | 258° |
| 2026-05-07 14:48 | 21.22242 | 117.73309 | 31915 ft | 473 kts | 258° |
| 2026-05-07 14:49 | 21.20628 | 117.66523 | 31915 ft | 473 kts | 258° |
| 2026-05-07 14:49 | 21.19002 | 117.59706 | 31916 ft | 473 kts | 258° |
| 2026-05-07 14:50 | 21.17259 | 117.52908 | 31914 ft | 474 kts | 255° |
| 2026-05-07 14:50 | 21.14946 | 117.46311 | 31915 ft | 475 kts | 249° |
| 2026-05-07 14:51 | 21.12110 | 117.39912 | 31916 ft | 474 kts | 247° |
| 2026-05-07 14:51 | 21.09215 | 117.33562 | 31916 ft | 474 kts | 247° |
| 2026-05-07 14:52 | 21.06332 | 117.27245 | 31916 ft | 475 kts | 247° |
| 2026-05-07 14:52 | 21.03441 | 117.20913 | 31911 ft | 475 kts | 247° |
| 2026-05-07 14:53 | 21.00550 | 117.14587 | 31901 ft | 474 kts | 247° |
| 2026-05-07 14:53 | 20.97650 | 117.08250 | 31902 ft | 474 kts | 247° |
| 2026-05-07 14:54 | 20.94750 | 117.01921 | 31912 ft | 476 kts | 247° |
| 2026-05-07 14:54 | 20.91826 | 116.95541 | 31912 ft | 486 kts | 247° |
| 2026-05-07 14:55 | 20.88826 | 116.89007 | 31910 ft | 494 kts | 247° |
| 2026-05-07 14:55 | 20.85781 | 116.82380 | 31911 ft | 501 kts | 247° |
| 2026-05-07 14:56 | 20.82684 | 116.75653 | 31911 ft | 506 kts | 246° |
| 2026-05-07 14:56 | 20.79587 | 116.68937 | 31905 ft | 500 kts | 246° |
| 2026-05-07 14:57 | 20.78056 | 116.65630 | 31912 ft | 483 kts | 246° |
| 2026-05-07 14:57 | 20.76588 | 116.62459 | 31919 ft | 474 kts | 247° |
| 2026-05-07 14:57 | 20.73675 | 116.56151 | 31976 ft | 479 kts | 247° |
| 2026-05-07 14:58 | 20.70712 | 116.49740 | 32179 ft | 483 kts | 247° |
| 2026-05-07 14:58 | 20.69223 | 116.46523 | 32342 ft | 483 kts | 247° |
| 2026-05-07 14:58 | 20.67740 | 116.43323 | 32523 ft | 483 kts | 247° |
| 2026-05-07 14:59 | 20.66254 | 116.40116 | 32732 ft | 482 kts | 247° |
| 2026-05-07 14:59 | 20.64774 | 116.36923 | 32945 ft | 482 kts | 247° |
| 2026-05-07 14:59 | 20.63285 | 116.33713 | 33167 ft | 481 kts | 246° |
| 2026-05-07 14:59 | 20.61801 | 116.30515 | 33404 ft | 480 kts | 246° |
| 2026-05-07 15:00 | 20.60324 | 116.27338 | 33623 ft | 480 kts | 246° |
| 2026-05-07 15:00 | 20.58833 | 116.24133 | 33848 ft | 479 kts | 246° |
| 2026-05-07 15:00 | 20.55885 | 116.17799 | 33921 ft | 479 kts | 246° |
| 2026-05-07 15:01 | 20.52904 | 116.11401 | 33926 ft | 480 kts | 246° |
| 2026-05-07 15:01 | 20.49940 | 116.05044 | 33924 ft | 480 kts | 246° |
| 2026-05-07 15:02 | 20.46966 | 115.98677 | 33923 ft | 479 kts | 246° |
| 2026-05-07 15:02 | 20.43999 | 115.92330 | 33918 ft | 479 kts | 246° |
| 2026-05-07 15:03 | 20.41031 | 115.85991 | 33920 ft | 479 kts | 246° |
| 2026-05-07 15:03 | 20.38071 | 115.79675 | 33921 ft | 478 kts | 246° |
| 2026-05-07 15:04 | 20.35090 | 115.73318 | 33923 ft | 478 kts | 246° |
| 2026-05-07 15:04 | 20.32127 | 115.67011 | 33921 ft | 479 kts | 246° |
| 2026-05-07 15:05 | 20.29148 | 115.60677 | 33923 ft | 479 kts | 246° |
| 2026-05-07 15:05 | 20.26170 | 115.54351 | 33920 ft | 479 kts | 246° |
| 2026-05-07 15:06 | 20.23180 | 115.48008 | 33922 ft | 479 kts | 246° |
| 2026-05-07 15:06 | 20.20192 | 115.41677 | 33919 ft | 479 kts | 246° |
| 2026-05-07 15:07 | 20.17213 | 115.35368 | 33915 ft | 480 kts | 246° |
| 2026-05-07 15:07 | 20.14211 | 115.29020 | 33906 ft | 480 kts | 246° |
| 2026-05-07 15:08 | 20.11213 | 115.22692 | 33906 ft | 481 kts | 246° |
| 2026-05-07 15:08 | 20.08206 | 115.16348 | 33914 ft | 481 kts | 246° |
| 2026-05-07 15:09 | 20.05211 | 115.10036 | 33911 ft | 480 kts | 246° |
| 2026-05-07 15:09 | 20.02201 | 115.03702 | 33915 ft | 481 kts | 246° |
| 2026-05-07 15:10 | 19.99188 | 114.97365 | 33916 ft | 481 kts | 246° |
| 2026-05-07 15:10 | 19.96170 | 114.91028 | 33914 ft | 481 kts | 246° |
| 2026-05-07 15:11 | 19.93145 | 114.84684 | 33922 ft | 481 kts | 246° |
| 2026-05-07 15:11 | 19.90136 | 114.78380 | 33913 ft | 481 kts | 246° |
| 2026-05-07 15:12 | 19.87091 | 114.72005 | 33917 ft | 481 kts | 246° |
| 2026-05-07 15:12 | 19.84034 | 114.65616 | 33912 ft | 480 kts | 246° |
| 2026-05-07 15:13 | 19.81020 | 114.59319 | 33914 ft | 480 kts | 246° |
| 2026-05-07 15:13 | 19.77993 | 114.53005 | 33916 ft | 480 kts | 246° |
| 2026-05-07 15:14 | 19.74961 | 114.46690 | 33915 ft | 480 kts | 246° |
| 2026-05-07 15:14 | 19.71941 | 114.40402 | 33913 ft | 480 kts | 246° |
| 2026-05-07 15:15 | 19.68920 | 114.34122 | 33912 ft | 480 kts | 246° |
| 2026-05-07 15:15 | 19.65870 | 114.27788 | 33908 ft | 480 kts | 245° |
| 2026-05-07 15:16 | 19.62837 | 114.21496 | 33901 ft | 479 kts | 246° |
| 2026-05-07 15:16 | 19.59825 | 114.15254 | 33891 ft | 478 kts | 245° |
| 2026-05-07 15:17 | 19.56794 | 114.08981 | 33887 ft | 479 kts | 246° |
| 2026-05-07 15:17 | 19.53751 | 114.02690 | 33886 ft | 479 kts | 246° |
| 2026-05-07 15:18 | 19.50721 | 113.96433 | 33885 ft | 479 kts | 246° |
| 2026-05-07 15:18 | 19.47693 | 113.90183 | 33885 ft | 479 kts | 245° |
| 2026-05-07 15:19 | 19.44641 | 113.83893 | 33886 ft | 479 kts | 245° |
| 2026-05-07 15:19 | 19.41606 | 113.77644 | 33892 ft | 479 kts | 245° |
| 2026-05-07 15:20 | 19.38550 | 113.71362 | 33889 ft | 479 kts | 245° |
| 2026-05-07 15:20 | 19.35519 | 113.65137 | 33891 ft | 478 kts | 246° |
| 2026-05-07 15:21 | 19.32462 | 113.58862 | 33890 ft | 478 kts | 245° |
| 2026-05-07 15:21 | 19.29418 | 113.52620 | 33894 ft | 478 kts | 245° |
| 2026-05-07 15:22 | 19.26373 | 113.46387 | 33894 ft | 478 kts | 245° |
| 2026-05-07 15:22 | 19.23332 | 113.40165 | 33894 ft | 478 kts | 245° |
| 2026-05-07 15:23 | 19.20265 | 113.33901 | 33897 ft | 478 kts | 245° |
| 2026-05-07 15:23 | 19.17204 | 113.27654 | 33894 ft | 478 kts | 245° |
| 2026-05-07 15:24 | 19.14156 | 113.21439 | 33895 ft | 478 kts | 245° |
| 2026-05-07 15:24 | 19.11096 | 113.15205 | 33895 ft | 477 kts | 245° |
| 2026-05-07 15:25 | 19.08036 | 113.08979 | 33894 ft | 478 kts | 245° |
| 2026-05-07 15:25 | 19.04979 | 113.02766 | 33897 ft | 477 kts | 245° |
| 2026-05-07 15:26 | 19.01924 | 112.96564 | 33896 ft | 477 kts | 245° |
| 2026-05-07 15:26 | 18.98848 | 112.90327 | 33895 ft | 477 kts | 245° |
| 2026-05-07 15:27 | 18.95791 | 112.84132 | 33894 ft | 478 kts | 245° |
| 2026-05-07 15:27 | 18.92722 | 112.77921 | 33894 ft | 477 kts | 245° |
| 2026-05-07 15:28 | 18.89758 | 112.71652 | 33887 ft | 475 kts | 252° |
| 2026-05-07 15:28 | 18.88925 | 112.68314 | 33894 ft | 472 kts | 263° |
| 2026-05-07 15:28 | 18.88521 | 112.64886 | 33897 ft | 472 kts | 266° |
| 2026-05-07 15:29 | 18.87989 | 112.57962 | 33895 ft | 472 kts | 268° |
| 2026-05-07 15:29 | 18.87510 | 112.51092 | 33895 ft | 472 kts | 268° |
| 2026-05-07 15:30 | 18.87030 | 112.44176 | 33895 ft | 473 kts | 268° |
| 2026-05-07 15:30 | 18.86556 | 112.37287 | 33895 ft | 473 kts | 268° |
| 2026-05-07 15:31 | 18.86080 | 112.30358 | 33895 ft | 473 kts | 268° |
| 2026-05-07 15:31 | 18.86224 | 112.23450 | 33895 ft | 471 kts | 276° |
| 2026-05-07 15:32 | 18.86814 | 112.16695 | 33887 ft | 471 kts | 277° |
| 2026-05-07 15:32 | 18.87393 | 112.09776 | 33878 ft | 471 kts | 276° |
| 2026-05-07 15:33 | 18.87936 | 112.02936 | 33875 ft | 471 kts | 276° |
| 2026-05-07 15:33 | 18.88472 | 111.96019 | 33874 ft | 471 kts | 276° |
| 2026-05-07 15:34 | 18.88999 | 111.89125 | 33874 ft | 472 kts | 276° |
| 2026-05-07 15:34 | 18.89520 | 111.82268 | 33874 ft | 472 kts | 276° |
| 2026-05-07 15:35 | 18.90044 | 111.75331 | 33874 ft | 472 kts | 276° |
| 2026-05-07 15:35 | 18.90562 | 111.68439 | 33875 ft | 472 kts | 276° |
| 2026-05-07 15:36 | 18.91077 | 111.61546 | 33874 ft | 472 kts | 276° |
| 2026-05-07 15:36 | 18.91591 | 111.54634 | 33874 ft | 471 kts | 276° |
| 2026-05-07 15:37 | 18.92099 | 111.47772 | 33874 ft | 471 kts | 276° |
| 2026-05-07 15:37 | 18.92608 | 111.40857 | 33874 ft | 471 kts | 276° |
| 2026-05-07 15:38 | 18.93108 | 111.34011 | 33874 ft | 472 kts | 276° |
| 2026-05-07 15:38 | 18.93612 | 111.27094 | 33874 ft | 472 kts | 276° |
| 2026-05-07 15:39 | 18.94113 | 111.20187 | 33874 ft | 472 kts | 276° |
| 2026-05-07 15:39 | 18.94613 | 111.13270 | 33874 ft | 473 kts | 276° |
| 2026-05-07 15:40 | 18.95108 | 111.06376 | 33875 ft | 472 kts | 276° |
| 2026-05-07 15:40 | 18.95598 | 110.99499 | 33875 ft | 471 kts | 276° |
| 2026-05-07 15:41 | 18.96086 | 110.92609 | 33875 ft | 470 kts | 276° |
| 2026-05-07 15:41 | 18.96569 | 110.85763 | 33877 ft | 470 kts | 276° |
| 2026-05-07 15:42 | 18.97057 | 110.78842 | 33883 ft | 471 kts | 276° |
| 2026-05-07 15:42 | 18.97537 | 110.71991 | 33891 ft | 471 kts | 276° |
| 2026-05-07 15:43 | 18.98014 | 110.65104 | 33894 ft | 471 kts | 276° |
| 2026-05-07 15:43 | 18.98491 | 110.58201 | 33896 ft | 471 kts | 276° |
| 2026-05-07 15:44 | 18.98966 | 110.51271 | 33897 ft | 470 kts | 276° |
| 2026-05-07 15:44 | 18.99442 | 110.44311 | 33898 ft | 470 kts | 276° |
| 2026-05-07 15:45 | 18.99913 | 110.37403 | 33905 ft | 470 kts | 276° |
| 2026-05-07 15:45 | 19.00381 | 110.30492 | 33916 ft | 470 kts | 276° |
| 2026-05-07 15:46 | 19.01071 | 110.20206 | 33927 ft | 469 kts | 276° |
| 2026-05-07 15:47 | 19.01532 | 110.13287 | 33939 ft | 469 kts | 276° |
| 2026-05-07 15:47 | 19.01993 | 110.06357 | 33952 ft | 469 kts | 276° |
| 2026-05-07 15:48 | 19.02447 | 109.99478 | 33964 ft | 469 kts | 276° |
| 2026-05-07 15:48 | 19.02897 | 109.92628 | 33965 ft | 469 kts | 276° |
| 2026-05-07 15:49 | 19.03344 | 109.85769 | 33962 ft | 469 kts | 276° |
| 2026-05-07 15:49 | 19.03790 | 109.78872 | 33962 ft | 469 kts | 276° |
| 2026-05-07 15:50 | 19.04232 | 109.72006 | 33963 ft | 469 kts | 276° |
| 2026-05-07 15:50 | 19.04675 | 109.65112 | 33970 ft | 469 kts | 276° |
| 2026-05-07 15:51 | 19.05110 | 109.58280 | 33984 ft | 469 kts | 276° |
| 2026-05-07 15:51 | 19.05546 | 109.51402 | 34002 ft | 468 kts | 276° |
| 2026-05-07 15:52 | 19.05977 | 109.44553 | 34014 ft | 468 kts | 276° |
| 2026-05-07 15:52 | 19.06407 | 109.37683 | 34009 ft | 468 kts | 276° |
| 2026-05-07 15:53 | 19.06832 | 109.30846 | 34007 ft | 468 kts | 276° |
| 2026-05-07 15:53 | 19.07255 | 109.23993 | 33994 ft | 468 kts | 276° |
| 2026-05-07 15:54 | 19.07680 | 109.17089 | 33968 ft | 468 kts | 276° |
| 2026-05-07 15:54 | 19.08101 | 109.10208 | 33946 ft | 468 kts | 275° |
| 2026-05-07 15:55 | 19.08521 | 109.03307 | 33923 ft | 469 kts | 275° |
| 2026-05-07 15:55 | 19.08938 | 108.96407 | 33906 ft | 468 kts | 275° |
| 2026-05-07 15:56 | 19.09350 | 108.89507 | 33900 ft | 468 kts | 275° |
| 2026-05-07 15:56 | 19.09758 | 108.82642 | 33897 ft | 467 kts | 276° |
| 2026-05-07 15:57 | 19.10164 | 108.75790 | 33896 ft | 467 kts | 276° |
| 2026-05-07 15:57 | 19.10566 | 108.68964 | 33892 ft | 467 kts | 276° |
| 2026-05-07 15:58 | 19.10966 | 108.62113 | 33887 ft | 467 kts | 276° |
| 2026-05-07 15:58 | 19.11365 | 108.55260 | 33884 ft | 468 kts | 276° |
| 2026-05-07 15:59 | 19.11761 | 108.48402 | 33884 ft | 468 kts | 275° |
| 2026-05-07 15:59 | 19.12154 | 108.41537 | 33882 ft | 467 kts | 276° |
| 2026-05-07 16:00 | 19.12545 | 108.34688 | 33881 ft | 467 kts | 275° |
| 2026-05-07 16:00 | 19.12930 | 108.27881 | 33880 ft | 467 kts | 275° |
| 2026-05-07 16:01 | 19.13315 | 108.21029 | 33878 ft | 466 kts | 275° |
| 2026-05-07 16:01 | 19.13695 | 108.14222 | 33880 ft | 466 kts | 275° |
| 2026-05-07 16:02 | 19.14074 | 108.07396 | 33878 ft | 466 kts | 275° |
| 2026-05-07 16:02 | 19.14453 | 108.00545 | 33877 ft | 466 kts | 275° |
| 2026-05-07 16:03 | 19.14827 | 107.93718 | 33876 ft | 466 kts | 275° |
| 2026-05-07 16:03 | 19.15198 | 107.86902 | 33877 ft | 466 kts | 275° |
| 2026-05-07 16:04 | 19.15567 | 107.80056 | 33877 ft | 467 kts | 275° |
| 2026-05-07 16:04 | 19.15931 | 107.73251 | 33876 ft | 466 kts | 275° |
| 2026-05-07 16:05 | 19.16295 | 107.66419 | 33875 ft | 466 kts | 275° |
| 2026-05-07 16:05 | 19.16657 | 107.59581 | 33870 ft | 466 kts | 275° |
| 2026-05-07 16:06 | 19.17016 | 107.52774 | 33867 ft | 466 kts | 275° |
| 2026-05-07 16:06 | 19.17373 | 107.45922 | 33867 ft | 465 kts | 275° |
| 2026-05-07 16:07 | 19.17724 | 107.39133 | 33868 ft | 466 kts | 275° |
| 2026-05-07 16:07 | 19.18074 | 107.32303 | 33867 ft | 466 kts | 275° |
| 2026-05-07 16:08 | 19.18423 | 107.25468 | 33868 ft | 466 kts | 275° |
| 2026-05-07 16:08 | 19.18770 | 107.18620 | 33870 ft | 467 kts | 274° |
| 2026-05-07 16:09 | 19.19115 | 107.11786 | 33872 ft | 467 kts | 274° |
| 2026-05-07 16:09 | 19.19455 | 107.04968 | 33873 ft | 467 kts | 274° |
| 2026-05-07 16:10 | 19.19793 | 106.98132 | 33874 ft | 467 kts | 274° |
| 2026-05-07 16:10 | 19.20130 | 106.91263 | 33875 ft | 466 kts | 274° |
| 2026-05-07 16:11 | 19.20463 | 106.84429 | 33873 ft | 466 kts | 275° |
| 2026-05-07 16:11 | 19.20792 | 106.77614 | 33874 ft | 466 kts | 274° |
| 2026-05-07 16:12 | 19.21122 | 106.70772 | 33874 ft | 466 kts | 274° |
| 2026-05-07 16:12 | 19.21448 | 106.63931 | 33874 ft | 466 kts | 274° |
| 2026-05-07 16:13 | 19.21771 | 106.57087 | 33873 ft | 466 kts | 274° |
| 2026-05-07 16:13 | 19.22094 | 106.50216 | 33874 ft | 466 kts | 274° |
| 2026-05-07 16:14 | 19.22411 | 106.43390 | 33874 ft | 466 kts | 274° |
| 2026-05-07 16:14 | 19.22726 | 106.36558 | 33875 ft | 466 kts | 274° |
| 2026-05-07 16:15 | 19.23760 | 106.29842 | 33873 ft | 464 kts | 287° |
| 2026-05-07 16:15 | 19.25682 | 106.23301 | 33868 ft | 465 kts | 288° |
| 2026-05-07 16:16 | 19.27675 | 106.16783 | 33863 ft | 465 kts | 288° |
| 2026-05-07 16:16 | 19.29661 | 106.10304 | 33863 ft | 465 kts | 288° |
| 2026-05-07 16:17 | 19.31650 | 106.03813 | 33860 ft | 465 kts | 288° |
| 2026-05-07 16:17 | 19.33657 | 105.97279 | 33861 ft | 465 kts | 288° |
| 2026-05-07 16:18 | 19.35655 | 105.90789 | 33862 ft | 465 kts | 288° |
| 2026-05-07 16:18 | 19.37667 | 105.84241 | 33867 ft | 464 kts | 289° |
| 2026-05-07 16:19 | 19.39671 | 105.77715 | 33872 ft | 464 kts | 289° |
| 2026-05-07 16:19 | 19.41666 | 105.71201 | 33875 ft | 464 kts | 289° |
| 2026-05-07 16:20 | 19.43668 | 105.64658 | 33880 ft | 465 kts | 289° |
| 2026-05-07 16:20 | 19.45666 | 105.58118 | 33885 ft | 464 kts | 289° |
| 2026-05-07 16:21 | 19.47656 | 105.51595 | 33892 ft | 464 kts | 289° |
| 2026-05-07 16:21 | 19.49653 | 105.45035 | 33900 ft | 463 kts | 289° |
| 2026-05-07 16:22 | 19.51644 | 105.38498 | 33903 ft | 464 kts | 289° |
| 2026-05-07 16:22 | 19.53643 | 105.31926 | 33914 ft | 464 kts | 288° |
| 2026-05-07 16:23 | 19.55292 | 105.26495 | 33921 ft | 464 kts | 288° |
| 2026-05-07 16:23 | 19.57612 | 105.18838 | 33929 ft | 464 kts | 288° |
| 2026-05-07 16:24 | 19.59589 | 105.12295 | 33937 ft | 463 kts | 288° |
| 2026-05-07 16:24 | 19.61564 | 105.05759 | 33945 ft | 463 kts | 289° |
| 2026-05-07 16:25 | 19.63545 | 104.99208 | 33950 ft | 463 kts | 288° |
| 2026-05-07 16:25 | 19.65533 | 104.92627 | 33971 ft | 463 kts | 289° |
| 2026-05-07 16:26 | 19.67502 | 104.86105 | 34018 ft | 463 kts | 289° |
| 2026-05-07 16:26 | 19.69457 | 104.79614 | 34089 ft | 462 kts | 289° |
| 2026-05-07 16:27 | 19.71403 | 104.73143 | 34177 ft | 462 kts | 289° |
| 2026-05-07 16:27 | 19.73358 | 104.66670 | 34183 ft | 461 kts | 289° |
| 2026-05-07 16:28 | 19.75325 | 104.60176 | 34154 ft | 461 kts | 289° |
| 2026-05-07 16:28 | 19.77307 | 104.53659 | 34106 ft | 461 kts | 289° |
| 2026-05-07 16:29 | 19.79294 | 104.47128 | 34068 ft | 461 kts | 289° |
| 2026-05-07 16:29 | 19.81277 | 104.40591 | 34062 ft | 461 kts | 289° |
| 2026-05-07 16:30 | 19.83248 | 104.34093 | 34063 ft | 461 kts | 288° |
| 2026-05-07 16:30 | 19.85218 | 104.27599 | 34067 ft | 461 kts | 289° |
| 2026-05-07 16:31 | 19.87200 | 104.21072 | 34070 ft | 461 kts | 289° |
| 2026-05-07 16:31 | 19.89184 | 104.14571 | 34072 ft | 461 kts | 289° |
| 2026-05-07 16:32 | 19.91166 | 104.08079 | 34072 ft | 461 kts | 289° |
| 2026-05-07 16:32 | 19.93155 | 104.01562 | 34072 ft | 461 kts | 289° |
| 2026-05-07 16:33 | 19.95145 | 103.95036 | 34070 ft | 460 kts | 289° |
| 2026-05-07 16:33 | 19.97136 | 103.88513 | 34072 ft | 460 kts | 289° |
| 2026-05-07 16:34 | 19.99134 | 103.81977 | 34075 ft | 460 kts | 289° |
| 2026-05-07 16:34 | 20.01109 | 103.75529 | 34073 ft | 460 kts | 289° |
| 2026-05-07 16:35 | 20.03092 | 103.69070 | 34075 ft | 460 kts | 289° |
| 2026-05-07 16:35 | 20.05072 | 103.62621 | 34086 ft | 460 kts | 289° |
| 2026-05-07 16:36 | 20.07051 | 103.56171 | 34105 ft | 460 kts | 289° |
| 2026-05-07 16:36 | 20.09032 | 103.49724 | 34123 ft | 460 kts | 289° |
| 2026-05-07 16:37 | 20.11032 | 103.43226 | 34122 ft | 460 kts | 289° |
| 2026-05-07 16:37 | 20.13032 | 103.36756 | 34108 ft | 459 kts | 289° |
| 2026-05-07 16:38 | 20.15052 | 103.30235 | 34097 ft | 459 kts | 289° |
| 2026-05-07 16:38 | 20.17061 | 103.23727 | 34085 ft | 459 kts | 289° |
| 2026-05-07 16:39 | 20.19075 | 103.17216 | 34065 ft | 459 kts | 289° |
| 2026-05-07 16:39 | 20.21098 | 103.10695 | 34052 ft | 459 kts | 289° |
| 2026-05-07 16:40 | 20.23130 | 103.04182 | 34037 ft | 459 kts | 289° |
| 2026-05-07 16:40 | 20.25156 | 102.97686 | 34022 ft | 459 kts | 289° |
| 2026-05-07 16:41 | 20.27182 | 102.91183 | 34018 ft | 459 kts | 289° |
| 2026-05-07 16:41 | 20.29206 | 102.84706 | 34017 ft | 459 kts | 289° |
| 2026-05-07 16:42 | 20.31256 | 102.78188 | 34017 ft | 459 kts | 289° |
| 2026-05-07 16:42 | 20.33317 | 102.71672 | 34018 ft | 459 kts | 289° |
| 2026-05-07 16:43 | 20.35382 | 102.65165 | 34015 ft | 459 kts | 289° |
| 2026-05-07 16:43 | 20.37444 | 102.58651 | 34009 ft | 459 kts | 289° |
| 2026-05-07 16:44 | 20.39498 | 102.52169 | 34003 ft | 459 kts | 289° |
| 2026-05-07 16:44 | 20.41561 | 102.45686 | 33999 ft | 459 kts | 289° |
| 2026-05-07 16:45 | 20.43635 | 102.39206 | 34001 ft | 459 kts | 289° |
| 2026-05-07 16:45 | 20.45728 | 102.32712 | 34008 ft | 459 kts | 289° |
| 2026-05-07 16:46 | 20.47816 | 102.26244 | 34018 ft | 459 kts | 289° |
| 2026-05-07 16:46 | 20.49930 | 102.19687 | 34023 ft | 459 kts | 289° |
| 2026-05-07 16:47 | 20.52023 | 102.13192 | 34022 ft | 459 kts | 289° |
| 2026-05-07 16:47 | 20.54113 | 102.06718 | 34020 ft | 459 kts | 289° |
| 2026-05-07 16:48 | 20.56218 | 102.00236 | 34025 ft | 459 kts | 289° |
| 2026-05-07 16:48 | 20.58327 | 101.93786 | 34026 ft | 459 kts | 289° |
| 2026-05-07 16:49 | 20.60452 | 101.87303 | 34030 ft | 458 kts | 289° |
| 2026-05-07 16:49 | 20.62569 | 101.80840 | 34028 ft | 458 kts | 289° |
| 2026-05-07 16:50 | 20.64688 | 101.74358 | 34024 ft | 458 kts | 289° |
| 2026-05-07 16:50 | 20.66813 | 101.67866 | 34023 ft | 458 kts | 289° |
| 2026-05-07 16:51 | 20.68935 | 101.61409 | 34034 ft | 458 kts | 289° |
| 2026-05-07 16:51 | 20.71065 | 101.54948 | 34038 ft | 458 kts | 289° |
| 2026-05-07 16:52 | 20.73191 | 101.48505 | 34042 ft | 458 kts | 289° |
| 2026-05-07 16:52 | 20.75329 | 101.42024 | 34051 ft | 458 kts | 289° |
| 2026-05-07 16:53 | 20.77468 | 101.35562 | 34060 ft | 457 kts | 289° |
| 2026-05-07 16:53 | 20.79624 | 101.29061 | 34065 ft | 457 kts | 289° |
| 2026-05-07 16:54 | 20.81768 | 101.22615 | 34068 ft | 457 kts | 289° |
| 2026-05-07 16:54 | 20.83913 | 101.16183 | 34064 ft | 457 kts | 289° |
| 2026-05-07 16:55 | 20.86068 | 101.09729 | 34064 ft | 457 kts | 289° |
| 2026-05-07 16:55 | 20.88215 | 101.03295 | 34066 ft | 457 kts | 289° |
| 2026-05-07 16:56 | 20.90367 | 100.96854 | 34068 ft | 457 kts | 289° |
| 2026-05-07 16:56 | 20.93618 | 100.87134 | 34055 ft | 457 kts | 289° |
| 2026-05-07 16:57 | 20.95788 | 100.80679 | 34041 ft | 457 kts | 289° |
| 2026-05-07 16:57 | 20.97955 | 100.74261 | 34028 ft | 456 kts | 289° |
| 2026-05-07 16:58 | 21.00119 | 100.67844 | 34033 ft | 456 kts | 287° |
| 2026-05-07 16:58 | 21.01007 | 100.61073 | 34076 ft | 458 kts | 269° |
| 2026-05-07 16:59 | 21.00732 | 100.57719 | 34200 ft | 460 kts | 265° |
| 2026-05-07 16:59 | 21.00558 | 100.54305 | 34428 ft | 459 kts | 269° |
| 2026-05-07 16:59 | 21.00520 | 100.50880 | 34679 ft | 458 kts | 270° |
| 2026-05-07 16:59 | 21.00501 | 100.47498 | 34944 ft | 457 kts | 270° |
| 2026-05-07 17:00 | 21.00472 | 100.44093 | 35185 ft | 456 kts | 270° |
| 2026-05-07 17:00 | 21.00430 | 100.40727 | 35380 ft | 456 kts | 270° |
| 2026-05-07 17:00 | 21.00377 | 100.37359 | 35563 ft | 456 kts | 269° |
| 2026-05-07 17:00 | 21.00316 | 100.33962 | 35750 ft | 456 kts | 269° |
| 2026-05-07 17:01 | 21.00251 | 100.30570 | 35932 ft | 456 kts | 269° |
| 2026-05-07 17:01 | 21.00182 | 100.27171 | 36026 ft | 457 kts | 269° |
| 2026-05-07 17:01 | 21.00039 | 100.20423 | 36017 ft | 457 kts | 269° |
| 2026-05-07 17:02 | 20.99889 | 100.13618 | 36024 ft | 457 kts | 269° |
| 2026-05-07 17:02 | 20.99735 | 100.06853 | 36025 ft | 456 kts | 269° |
| 2026-05-07 17:03 | 20.99577 | 100.00096 | 36025 ft | 456 kts | 269° |
| 2026-05-07 17:03 | 20.99418 | 99.93349 | 36033 ft | 456 kts | 269° |
| 2026-05-07 17:04 | 20.99255 | 99.86556 | 36041 ft | 456 kts | 269° |
| 2026-05-07 17:04 | 20.99090 | 99.79800 | 36058 ft | 456 kts | 269° |
| 2026-05-07 17:05 | 20.98924 | 99.73050 | 36079 ft | 456 kts | 269° |
| 2026-05-07 17:05 | 20.98753 | 99.66267 | 36087 ft | 457 kts | 269° |
| 2026-05-07 17:06 | 20.98581 | 99.59527 | 36100 ft | 457 kts | 269° |
| 2026-05-07 17:06 | 20.98403 | 99.52702 | 36114 ft | 457 kts | 269° |
| 2026-05-07 17:07 | 20.98224 | 99.45929 | 36117 ft | 456 kts | 269° |
| 2026-05-07 17:07 | 20.98043 | 99.39182 | 36103 ft | 457 kts | 269° |
| 2026-05-07 17:08 | 20.97860 | 99.32423 | 36083 ft | 457 kts | 268° |
| 2026-05-07 17:08 | 20.97673 | 99.25629 | 36061 ft | 457 kts | 268° |
| 2026-05-07 17:09 | 20.97485 | 99.18878 | 36051 ft | 456 kts | 268° |
| 2026-05-07 17:09 | 20.97292 | 99.12080 | 36050 ft | 456 kts | 268° |
| 2026-05-07 17:10 | 20.97098 | 99.05336 | 36042 ft | 456 kts | 268° |
| 2026-05-07 17:10 | 20.96900 | 98.98550 | 36039 ft | 457 kts | 268° |
| 2026-05-07 17:11 | 20.96701 | 98.91815 | 36027 ft | 457 kts | 268° |
| 2026-05-07 17:11 | 20.96498 | 98.85021 | 36009 ft | 456 kts | 268° |
| 2026-05-07 17:12 | 20.96293 | 98.78254 | 35990 ft | 456 kts | 268° |
| 2026-05-07 17:12 | 20.96086 | 98.71506 | 35974 ft | 455 kts | 268° |
| 2026-05-07 17:13 | 20.95875 | 98.64756 | 35971 ft | 455 kts | 268° |
| 2026-05-07 17:13 | 20.95663 | 98.58048 | 35968 ft | 454 kts | 268° |
| 2026-05-07 17:14 | 20.95448 | 98.51321 | 35968 ft | 454 kts | 268° |
| 2026-05-07 17:14 | 20.95231 | 98.44573 | 35975 ft | 454 kts | 268° |
| 2026-05-07 17:15 | 20.95011 | 98.37832 | 35992 ft | 454 kts | 268° |
| 2026-05-07 17:15 | 20.94789 | 98.31103 | 36015 ft | 454 kts | 268° |
| 2026-05-07 17:16 | 20.94564 | 98.24397 | 36029 ft | 454 kts | 268° |
| 2026-05-07 17:16 | 20.94337 | 98.17688 | 36029 ft | 453 kts | 268° |
| 2026-05-07 17:17 | 20.94106 | 98.10957 | 36024 ft | 452 kts | 268° |
| 2026-05-07 17:17 | 20.93875 | 98.04299 | 36025 ft | 451 kts | 268° |
| 2026-05-07 17:18 | 20.93639 | 97.97571 | 36025 ft | 451 kts | 268° |
| 2026-05-07 17:18 | 20.93402 | 97.90885 | 36031 ft | 451 kts | 268° |
| 2026-05-07 17:19 | 20.93165 | 97.84239 | 36037 ft | 451 kts | 268° |
| 2026-05-07 17:19 | 20.92921 | 97.77516 | 36042 ft | 452 kts | 268° |
| 2026-05-07 17:20 | 20.92677 | 97.70832 | 36056 ft | 451 kts | 268° |
| 2026-05-07 17:20 | 20.92430 | 97.64160 | 36077 ft | 451 kts | 268° |
| 2026-05-07 17:21 | 20.92178 | 97.57441 | 36098 ft | 451 kts | 268° |
| 2026-05-07 17:21 | 20.91927 | 97.50778 | 36121 ft | 450 kts | 268° |
| 2026-05-07 17:22 | 20.91672 | 97.44102 | 36136 ft | 450 kts | 268° |
| 2026-05-07 17:22 | 20.91415 | 97.37442 | 36137 ft | 450 kts | 268° |
| 2026-05-07 17:23 | 20.91156 | 97.30784 | 36135 ft | 450 kts | 267° |
| 2026-05-07 17:23 | 20.90894 | 97.24133 | 36131 ft | 449 kts | 267° |
| 2026-05-07 17:24 | 20.90629 | 97.17444 | 36118 ft | 449 kts | 267° |
| 2026-05-07 17:24 | 20.90363 | 97.10828 | 36100 ft | 449 kts | 267° |
| 2026-05-07 17:25 | 20.90094 | 97.04172 | 36080 ft | 448 kts | 267° |
| 2026-05-07 17:25 | 20.89821 | 96.97513 | 36064 ft | 448 kts | 267° |
| 2026-05-07 17:26 | 20.89547 | 96.90881 | 36066 ft | 448 kts | 267° |
| 2026-05-07 17:26 | 20.89272 | 96.84265 | 36078 ft | 448 kts | 267° |
| 2026-05-07 17:27 | 20.88993 | 96.77615 | 36095 ft | 447 kts | 267° |
| 2026-05-07 17:27 | 20.88714 | 96.71020 | 36112 ft | 447 kts | 267° |
| 2026-05-07 17:28 | 20.88430 | 96.64401 | 36088 ft | 447 kts | 267° |
| 2026-05-07 17:28 | 20.88142 | 96.57752 | 36064 ft | 447 kts | 267° |
| 2026-05-07 17:29 | 20.87853 | 96.51128 | 36048 ft | 447 kts | 267° |
| 2026-05-07 17:29 | 20.87562 | 96.44503 | 36014 ft | 447 kts | 267° |
| 2026-05-07 17:30 | 20.87268 | 96.37894 | 35988 ft | 446 kts | 267° |
| 2026-05-07 17:30 | 20.86974 | 96.31303 | 35953 ft | 445 kts | 267° |
| 2026-05-07 17:31 | 20.86675 | 96.24676 | 35904 ft | 445 kts | 267° |
| 2026-05-07 17:31 | 20.86374 | 96.18071 | 35877 ft | 445 kts | 267° |
| 2026-05-07 17:32 | 20.86072 | 96.11507 | 35863 ft | 445 kts | 267° |
| 2026-05-07 17:32 | 20.85819 | 96.06023 | 35842 ft | 445 kts | 267° |
| 2026-05-07 17:33 | 20.85459 | 95.98301 | 35825 ft | 445 kts | 267° |
| 2026-05-07 17:33 | 20.85150 | 95.91732 | 35825 ft | 445 kts | 267° |
| 2026-05-07 17:34 | 20.84838 | 95.85165 | 35830 ft | 445 kts | 267° |
| 2026-05-07 17:34 | 20.84524 | 95.78581 | 35836 ft | 445 kts | 267° |
| 2026-05-07 17:35 | 20.84206 | 95.71999 | 35842 ft | 444 kts | 267° |
| 2026-05-07 17:35 | 20.83887 | 95.65421 | 35847 ft | 444 kts | 266° |
| 2026-05-07 17:36 | 20.83564 | 95.58840 | 35850 ft | 444 kts | 266° |
| 2026-05-07 17:36 | 20.83239 | 95.52258 | 35851 ft | 444 kts | 266° |
| 2026-05-07 17:37 | 20.82911 | 95.45665 | 35854 ft | 444 kts | 266° |
| 2026-05-07 17:37 | 20.82580 | 95.39066 | 35855 ft | 444 kts | 266° |
| 2026-05-07 17:38 | 20.82249 | 95.32488 | 35855 ft | 444 kts | 266° |
| 2026-05-07 17:38 | 20.81913 | 95.25917 | 35859 ft | 444 kts | 266° |
| 2026-05-07 17:39 | 20.81584 | 95.19492 | 35865 ft | 444 kts | 266° |
| 2026-05-07 17:39 | 20.81244 | 95.12927 | 35870 ft | 444 kts | 266° |
| 2026-05-07 17:40 | 20.80903 | 95.06355 | 35867 ft | 443 kts | 266° |
| 2026-05-07 17:40 | 20.80559 | 94.99806 | 35871 ft | 444 kts | 266° |
| 2026-05-07 17:41 | 20.80214 | 94.93272 | 35875 ft | 443 kts | 266° |
| 2026-05-07 17:41 | 20.79865 | 94.86711 | 35868 ft | 443 kts | 266° |
| 2026-05-07 17:42 | 20.79515 | 94.80151 | 35868 ft | 444 kts | 266° |
| 2026-05-07 17:42 | 20.79161 | 94.73595 | 35860 ft | 444 kts | 266° |
| 2026-05-07 17:43 | 20.78803 | 94.67014 | 35871 ft | 443 kts | 266° |
| 2026-05-07 17:43 | 20.78445 | 94.60487 | 35879 ft | 443 kts | 266° |
| 2026-05-07 17:44 | 20.78084 | 94.53921 | 35890 ft | 444 kts | 266° |
| 2026-05-07 17:44 | 20.77719 | 94.47344 | 35896 ft | 444 kts | 266° |
| 2026-05-07 17:45 | 20.77351 | 94.40745 | 35905 ft | 444 kts | 266° |
| 2026-05-07 17:45 | 20.76983 | 94.34221 | 35914 ft | 444 kts | 265° |
| 2026-05-07 17:46 | 20.76609 | 94.27628 | 35925 ft | 444 kts | 265° |
| 2026-05-07 17:46 | 20.76236 | 94.21092 | 35930 ft | 444 kts | 265° |
| 2026-05-07 17:47 | 20.75860 | 94.14513 | 35960 ft | 443 kts | 265° |
| 2026-05-07 17:47 | 20.75479 | 94.07928 | 35996 ft | 443 kts | 265° |
| 2026-05-07 17:48 | 20.75099 | 94.01400 | 36015 ft | 443 kts | 266° |
| 2026-05-07 17:48 | 20.74716 | 93.94843 | 36032 ft | 443 kts | 265° |
| 2026-05-07 17:49 | 20.74333 | 93.88339 | 36039 ft | 442 kts | 265° |
| 2026-05-07 17:49 | 20.73944 | 93.81786 | 36055 ft | 443 kts | 265° |
| 2026-05-07 17:50 | 20.73549 | 93.75202 | 36070 ft | 443 kts | 265° |
| 2026-05-07 17:50 | 20.73159 | 93.68697 | 36058 ft | 443 kts | 265° |
| 2026-05-07 17:51 | 20.72762 | 93.62121 | 36025 ft | 443 kts | 265° |
| 2026-05-07 17:51 | 20.72363 | 93.55572 | 35992 ft | 444 kts | 265° |
| 2026-05-07 17:52 | 20.71963 | 93.49017 | 35963 ft | 444 kts | 265° |
| 2026-05-07 17:52 | 20.71558 | 93.42446 | 35938 ft | 444 kts | 265° |
| 2026-05-07 17:53 | 20.71152 | 93.35902 | 35917 ft | 443 kts | 265° |
| 2026-05-07 17:53 | 20.70742 | 93.29321 | 35898 ft | 443 kts | 265° |
| 2026-05-07 17:54 | 20.70332 | 93.22788 | 35880 ft | 443 kts | 265° |
| 2026-05-07 17:54 | 20.69919 | 93.16250 | 35872 ft | 444 kts | 265° |
| 2026-05-07 17:55 | 20.69499 | 93.09650 | 35873 ft | 444 kts | 265° |
| 2026-05-07 17:55 | 20.69082 | 93.03109 | 35864 ft | 444 kts | 265° |
| 2026-05-07 17:56 | 20.68658 | 92.96525 | 35869 ft | 445 kts | 265° |
| 2026-05-07 17:56 | 20.68233 | 92.89938 | 35872 ft | 444 kts | 265° |
| 2026-05-07 17:57 | 20.67879 | 92.84474 | 35875 ft | 445 kts | 265° |
| 2026-05-07 17:57 | 20.67377 | 92.76807 | 35880 ft | 444 kts | 265° |
| 2026-05-07 17:58 | 20.66946 | 92.70262 | 35882 ft | 444 kts | 265° |
| 2026-05-07 17:58 | 20.66510 | 92.63680 | 35881 ft | 443 kts | 265° |
| 2026-05-07 17:59 | 20.66074 | 92.57138 | 35879 ft | 444 kts | 265° |
| 2026-05-07 17:59 | 20.65636 | 92.50575 | 35876 ft | 444 kts | 265° |
| 2026-05-07 18:00 | 20.65198 | 92.44052 | 35871 ft | 444 kts | 265° |
| 2026-05-07 18:00 | 20.64750 | 92.37448 | 35864 ft | 444 kts | 265° |
| 2026-05-07 18:01 | 20.64304 | 92.30919 | 35862 ft | 444 kts | 264° |
| 2026-05-07 18:01 | 20.63854 | 92.24347 | 35855 ft | 444 kts | 265° |
| 2026-05-07 18:02 | 20.63175 | 92.14497 | 35856 ft | 445 kts | 264° |
| 2026-05-07 18:03 | 20.62722 | 92.07949 | 35863 ft | 444 kts | 264° |
| 2026-05-07 18:03 | 20.62263 | 92.01387 | 35871 ft | 444 kts | 264° |
| 2026-05-07 18:04 | 20.61802 | 91.94823 | 35873 ft | 444 kts | 264° |
| 2026-05-07 18:04 | 20.61340 | 91.88272 | 35875 ft | 444 kts | 264° |
| 2026-05-07 18:05 | 20.60878 | 91.81753 | 35872 ft | 444 kts | 264° |
| 2026-05-07 18:05 | 20.60406 | 91.75152 | 35873 ft | 444 kts | 264° |
| 2026-05-07 18:06 | 20.59940 | 91.68640 | 35872 ft | 444 kts | 264° |
| 2026-05-07 18:06 | 20.59465 | 91.62056 | 35871 ft | 444 kts | 264° |
| 2026-05-07 18:07 | 20.58989 | 91.55508 | 35860 ft | 444 kts | 264° |
| 2026-05-07 18:07 | 20.58513 | 91.48954 | 35853 ft | 445 kts | 264° |
| 2026-05-07 18:08 | 20.58030 | 91.42376 | 35854 ft | 445 kts | 264° |
| 2026-05-07 18:08 | 20.57550 | 91.35850 | 35852 ft | 445 kts | 264° |
| 2026-05-07 18:09 | 20.57064 | 91.29288 | 35853 ft | 444 kts | 264° |
| 2026-05-07 18:09 | 20.56576 | 91.22726 | 35853 ft | 444 kts | 264° |
| 2026-05-07 18:10 | 20.56085 | 91.16157 | 35852 ft | 444 kts | 264° |
| 2026-05-07 18:10 | 20.55594 | 91.09603 | 35853 ft | 445 kts | 264° |
| 2026-05-07 18:11 | 20.55097 | 91.03040 | 35851 ft | 445 kts | 264° |
| 2026-05-07 18:11 | 20.54598 | 90.96468 | 35852 ft | 445 kts | 264° |
| 2026-05-07 18:12 | 20.54099 | 90.89923 | 35850 ft | 445 kts | 264° |
| 2026-05-07 18:12 | 20.53598 | 90.83392 | 35849 ft | 445 kts | 264° |
| 2026-05-07 18:13 | 20.53091 | 90.76814 | 35854 ft | 444 kts | 264° |
| 2026-05-07 18:13 | 20.52583 | 90.70252 | 35854 ft | 445 kts | 264° |
| 2026-05-07 18:14 | 20.52074 | 90.63718 | 35853 ft | 445 kts | 264° |
| 2026-05-07 18:14 | 20.51563 | 90.57180 | 35854 ft | 444 kts | 264° |
| 2026-05-07 18:15 | 20.51048 | 90.50628 | 35854 ft | 444 kts | 264° |
| 2026-05-07 18:15 | 20.50530 | 90.44057 | 35854 ft | 443 kts | 264° |
| 2026-05-07 18:16 | 20.50016 | 90.37578 | 35860 ft | 443 kts | 264° |
| 2026-05-07 18:16 | 20.49493 | 90.31020 | 35863 ft | 442 kts | 264° |
| 2026-05-07 18:17 | 20.48974 | 90.24534 | 35862 ft | 441 kts | 264° |
| 2026-05-07 18:17 | 20.48450 | 90.18032 | 35860 ft | 441 kts | 264° |
| 2026-05-07 18:18 | 20.47922 | 90.11523 | 35859 ft | 441 kts | 264° |
| 2026-05-07 18:18 | 20.47396 | 90.05033 | 35861 ft | 441 kts | 264° |
| 2026-05-07 18:19 | 20.46864 | 89.98515 | 35862 ft | 441 kts | 264° |
| 2026-05-07 18:19 | 20.46334 | 89.92035 | 35864 ft | 441 kts | 264° |
| 2026-05-07 18:20 | 20.45798 | 89.85526 | 35870 ft | 441 kts | 264° |
| 2026-05-07 18:20 | 20.45262 | 89.79038 | 35868 ft | 441 kts | 263° |
| 2026-05-07 18:21 | 20.44723 | 89.72555 | 35865 ft | 441 kts | 263° |
| 2026-05-07 18:21 | 20.44183 | 89.66077 | 35858 ft | 441 kts | 263° |
| 2026-05-07 18:22 | 20.43635 | 89.59567 | 35855 ft | 441 kts | 264° |
| 2026-05-07 18:22 | 20.43089 | 89.53075 | 35852 ft | 441 kts | 263° |
| 2026-05-07 18:23 | 20.42537 | 89.46568 | 35853 ft | 441 kts | 263° |
| 2026-05-07 18:23 | 20.41987 | 89.40084 | 35851 ft | 442 kts | 263° |
| 2026-05-07 18:24 | 20.41432 | 89.33591 | 35855 ft | 441 kts | 263° |
| 2026-05-07 18:24 | 20.40876 | 89.27100 | 35851 ft | 441 kts | 263° |
| 2026-05-07 18:25 | 20.40318 | 89.20616 | 35853 ft | 441 kts | 263° |
| 2026-05-07 18:25 | 20.39755 | 89.14108 | 35851 ft | 441 kts | 263° |
| 2026-05-07 18:26 | 20.39191 | 89.07628 | 35852 ft | 440 kts | 263° |
| 2026-05-07 18:26 | 20.38623 | 89.01122 | 35853 ft | 441 kts | 263° |
| 2026-05-07 18:27 | 20.38057 | 88.94658 | 35851 ft | 441 kts | 263° |
| 2026-05-07 18:27 | 20.37486 | 88.88173 | 35849 ft | 441 kts | 263° |
| 2026-05-07 18:28 | 20.36912 | 88.81679 | 35850 ft | 441 kts | 263° |
| 2026-05-07 18:28 | 20.36333 | 88.75157 | 35851 ft | 441 kts | 263° |
| 2026-05-07 18:29 | 20.35756 | 88.68689 | 35850 ft | 442 kts | 263° |
| 2026-05-07 18:29 | 20.35174 | 88.62174 | 35850 ft | 441 kts | 263° |
| 2026-05-07 18:30 | 20.34592 | 88.55705 | 35850 ft | 441 kts | 263° |
| 2026-05-07 18:30 | 20.34003 | 88.49190 | 35851 ft | 441 kts | 263° |
| 2026-05-07 18:31 | 20.33415 | 88.42705 | 35851 ft | 441 kts | 263° |
| 2026-05-07 18:31 | 20.32825 | 88.36218 | 35852 ft | 441 kts | 263° |
| 2026-05-07 18:32 | 20.32235 | 88.29759 | 35851 ft | 441 kts | 262° |
| 2026-05-07 18:32 | 20.31637 | 88.23241 | 35852 ft | 441 kts | 263° |
| 2026-05-07 18:33 | 20.31042 | 88.16787 | 35852 ft | 441 kts | 262° |
| 2026-05-07 18:33 | 20.30438 | 88.10259 | 35852 ft | 442 kts | 262° |
| 2026-05-07 18:34 | 20.29836 | 88.03775 | 35853 ft | 442 kts | 262° |
| 2026-05-07 18:34 | 20.29233 | 87.97307 | 35850 ft | 441 kts | 262° |
| 2026-05-07 18:35 | 20.28624 | 87.90812 | 35849 ft | 441 kts | 262° |
| 2026-05-07 18:35 | 20.28014 | 87.84333 | 35844 ft | 441 kts | 263° |
| 2026-05-07 18:36 | 20.27406 | 87.77886 | 35840 ft | 441 kts | 263° |
| 2026-05-07 18:36 | 20.26792 | 87.71412 | 35839 ft | 440 kts | 263° |
| 2026-05-07 18:37 | 20.26173 | 87.64906 | 35836 ft | 441 kts | 263° |
| 2026-05-07 18:37 | 20.25554 | 87.58427 | 35834 ft | 442 kts | 263° |
| 2026-05-07 18:38 | 20.24933 | 87.51954 | 35835 ft | 442 kts | 263° |
| 2026-05-07 18:38 | 20.24307 | 87.45460 | 35833 ft | 442 kts | 263° |
| 2026-05-07 18:39 | 20.23678 | 87.38967 | 35832 ft | 442 kts | 263° |
| 2026-05-07 18:39 | 20.23046 | 87.32456 | 35835 ft | 442 kts | 263° |
| 2026-05-07 18:40 | 20.22418 | 87.25991 | 35834 ft | 442 kts | 263° |
| 2026-05-07 18:40 | 20.21782 | 87.19496 | 35836 ft | 441 kts | 263° |
| 2026-05-07 18:41 | 20.21146 | 87.13023 | 35842 ft | 441 kts | 263° |
| 2026-05-07 18:41 | 20.20508 | 87.06539 | 35849 ft | 441 kts | 263° |
| 2026-05-07 18:42 | 20.19866 | 87.00060 | 35852 ft | 441 kts | 263° |
| 2026-05-07 18:42 | 20.19226 | 86.93617 | 35853 ft | 441 kts | 263° |
| 2026-05-07 18:43 | 20.18577 | 86.87119 | 35852 ft | 442 kts | 263° |
| 2026-05-07 18:43 | 20.17930 | 86.80642 | 35853 ft | 443 kts | 263° |
| 2026-05-07 18:44 | 20.17275 | 86.74127 | 35850 ft | 442 kts | 263° |
| 2026-05-07 18:44 | 20.16619 | 86.67629 | 35853 ft | 442 kts | 263° |
| 2026-05-07 18:45 | 20.15960 | 86.61139 | 35852 ft | 442 kts | 263° |
| 2026-05-07 18:45 | 20.15299 | 86.54635 | 35850 ft | 442 kts | 263° |
| 2026-05-07 18:46 | 20.14636 | 86.48178 | 35853 ft | 442 kts | 263° |
| 2026-05-07 18:46 | 20.13969 | 86.41690 | 35849 ft | 442 kts | 263° |
| 2026-05-07 18:47 | 20.13296 | 86.35200 | 35847 ft | 443 kts | 263° |
| 2026-05-07 18:47 | 20.12629 | 86.28693 | 35841 ft | 442 kts | 264° |
| 2026-05-07 18:48 | 20.12468 | 86.22190 | 35841 ft | 444 kts | 270° |
| 2026-05-07 18:48 | 20.13095 | 86.15638 | 35839 ft | 447 kts | 277° |
| 2026-05-07 18:49 | 20.14519 | 86.09186 | 35840 ft | 449 kts | 284° |
| 2026-05-07 18:49 | 20.16626 | 86.02953 | 35838 ft | 451 kts | 288° |
| 2026-05-07 18:50 | 20.18874 | 85.96715 | 35840 ft | 451 kts | 288° |
| 2026-05-07 18:50 | 20.21129 | 85.90510 | 35841 ft | 450 kts | 288° |
| 2026-05-07 18:51 | 20.23222 | 85.84274 | 35845 ft | 448 kts | 284° |
| 2026-05-07 18:51 | 20.24766 | 85.77868 | 35845 ft | 446 kts | 279° |
| 2026-05-07 18:52 | 20.25750 | 85.71375 | 35849 ft | 445 kts | 276° |
| 2026-05-07 18:52 | 20.26583 | 85.64850 | 35845 ft | 446 kts | 275° |
| 2026-05-07 18:53 | 20.27406 | 85.58329 | 35846 ft | 446 kts | 275° |
| 2026-05-07 18:53 | 20.28231 | 85.51785 | 35848 ft | 446 kts | 275° |
| 2026-05-07 18:54 | 20.29054 | 85.45229 | 35845 ft | 447 kts | 275° |
| 2026-05-07 18:54 | 20.29870 | 85.38707 | 35847 ft | 446 kts | 275° |
| 2026-05-07 18:55 | 20.30685 | 85.32171 | 35852 ft | 445 kts | 275° |
| 2026-05-07 18:55 | 20.31492 | 85.25682 | 35855 ft | 445 kts | 275° |
| 2026-05-07 18:56 | 20.32304 | 85.19134 | 35863 ft | 445 kts | 275° |
| 2026-05-07 18:56 | 20.33110 | 85.12614 | 35869 ft | 446 kts | 275° |
| 2026-05-07 18:57 | 20.33912 | 85.06094 | 35874 ft | 446 kts | 275° |
| 2026-05-07 18:57 | 20.34718 | 84.99532 | 35875 ft | 447 kts | 275° |
| 2026-05-07 18:58 | 20.35519 | 84.92995 | 35874 ft | 446 kts | 275° |
| 2026-05-07 18:58 | 20.36314 | 84.86477 | 35874 ft | 447 kts | 275° |
| 2026-05-07 18:59 | 20.37112 | 84.79908 | 35879 ft | 446 kts | 275° |
| 2026-05-07 18:59 | 20.37903 | 84.73387 | 35884 ft | 446 kts | 275° |
| 2026-05-07 19:00 | 20.38693 | 84.66855 | 35881 ft | 445 kts | 275° |
| 2026-05-07 19:00 | 20.39483 | 84.60307 | 35886 ft | 445 kts | 275° |
| 2026-05-07 19:01 | 20.40265 | 84.53782 | 35888 ft | 445 kts | 275° |
| 2026-05-07 19:01 | 20.41047 | 84.47255 | 35896 ft | 445 kts | 275° |
| 2026-05-07 19:02 | 20.41826 | 84.40728 | 35901 ft | 445 kts | 275° |
| 2026-05-07 19:02 | 20.42602 | 84.34202 | 35911 ft | 445 kts | 275° |
| 2026-05-07 19:03 | 20.43373 | 84.27693 | 35919 ft | 445 kts | 275° |
| 2026-05-07 19:03 | 20.44149 | 84.21134 | 35931 ft | 445 kts | 275° |
| 2026-05-07 19:04 | 20.44914 | 84.14638 | 35922 ft | 445 kts | 275° |
| 2026-05-07 19:04 | 20.45682 | 84.08090 | 35921 ft | 445 kts | 275° |
| 2026-05-07 19:05 | 20.46447 | 84.01558 | 35899 ft | 445 kts | 275° |
| 2026-05-07 19:05 | 20.47208 | 83.95033 | 35900 ft | 445 kts | 275° |
| 2026-05-07 19:06 | 20.47968 | 83.88488 | 35882 ft | 445 kts | 275° |
| 2026-05-07 19:06 | 20.49100 | 83.78709 | 35867 ft | 445 kts | 275° |
| 2026-05-07 19:07 | 20.49856 | 83.72153 | 35859 ft | 444 kts | 275° |
| 2026-05-07 19:07 | 20.50604 | 83.65632 | 35849 ft | 444 kts | 275° |
| 2026-05-07 19:08 | 20.51349 | 83.59118 | 35851 ft | 444 kts | 276° |
| 2026-05-07 19:08 | 20.52094 | 83.52599 | 35843 ft | 444 kts | 275° |
| 2026-05-07 19:09 | 20.52834 | 83.46079 | 35836 ft | 444 kts | 276° |
| 2026-05-07 19:09 | 20.53569 | 83.39590 | 35839 ft | 444 kts | 275° |
| 2026-05-07 19:10 | 20.54304 | 83.33073 | 35842 ft | 444 kts | 275° |
| 2026-05-07 19:10 | 20.55033 | 83.26566 | 35830 ft | 443 kts | 275° |
| 2026-05-07 19:11 | 20.55763 | 83.20044 | 35835 ft | 443 kts | 275° |
| 2026-05-07 19:11 | 20.56486 | 83.13540 | 35840 ft | 443 kts | 275° |
| 2026-05-07 19:12 | 20.57209 | 83.07005 | 35836 ft | 444 kts | 275° |
| 2026-05-07 19:12 | 20.57921 | 83.00523 | 35842 ft | 443 kts | 275° |
| 2026-05-07 19:13 | 20.58661 | 82.93979 | 35846 ft | 444 kts | 277° |
| 2026-05-07 19:13 | 20.59557 | 82.87478 | 35842 ft | 444 kts | 277° |
| 2026-05-07 19:14 | 20.60452 | 82.81004 | 35852 ft | 444 kts | 277° |
| 2026-05-07 19:14 | 20.61332 | 82.74514 | 35854 ft | 444 kts | 277° |
| 2026-05-07 19:15 | 20.62208 | 82.67982 | 35875 ft | 444 kts | 277° |
| 2026-05-07 19:15 | 20.63077 | 82.61483 | 35884 ft | 443 kts | 277° |
| 2026-05-07 19:16 | 20.63939 | 82.55005 | 35902 ft | 443 kts | 277° |
| 2026-05-07 19:16 | 20.64799 | 82.48506 | 35916 ft | 444 kts | 277° |
| 2026-05-07 19:17 | 20.65662 | 82.41975 | 35912 ft | 444 kts | 277° |
| 2026-05-07 19:17 | 20.66521 | 82.35465 | 35901 ft | 444 kts | 277° |
| 2026-05-07 19:18 | 20.67372 | 82.28974 | 35887 ft | 444 kts | 277° |
| 2026-05-07 19:18 | 20.68226 | 82.22436 | 35875 ft | 444 kts | 277° |
| 2026-05-07 19:19 | 20.69072 | 82.15929 | 35872 ft | 444 kts | 277° |
| 2026-05-07 19:19 | 20.69915 | 82.09424 | 35873 ft | 444 kts | 277° |
| 2026-05-07 19:20 | 20.70754 | 82.02908 | 35872 ft | 444 kts | 277° |
| 2026-05-07 19:20 | 20.71596 | 81.96369 | 35875 ft | 445 kts | 277° |
| 2026-05-07 19:21 | 20.72470 | 81.89836 | 35873 ft | 444 kts | 277° |
| 2026-05-07 19:21 | 20.73354 | 81.83340 | 35869 ft | 445 kts | 277° |
| 2026-05-07 19:22 | 20.74227 | 81.76832 | 35864 ft | 445 kts | 277° |
| 2026-05-07 19:22 | 20.75098 | 81.70280 | 35860 ft | 444 kts | 277° |
| 2026-05-07 19:23 | 20.75959 | 81.63780 | 35859 ft | 444 kts | 277° |
| 2026-05-07 19:23 | 20.76818 | 81.57272 | 35860 ft | 444 kts | 278° |
| 2026-05-07 19:24 | 20.77674 | 81.50736 | 35859 ft | 444 kts | 277° |
| 2026-05-07 19:24 | 20.78523 | 81.44217 | 35858 ft | 444 kts | 277° |
| 2026-05-07 19:25 | 20.79370 | 81.37718 | 35861 ft | 444 kts | 278° |
| 2026-05-07 19:25 | 20.80237 | 81.31189 | 35861 ft | 444 kts | 277° |
| 2026-05-07 19:26 | 20.81095 | 81.24684 | 35858 ft | 444 kts | 277° |
| 2026-05-07 19:26 | 20.81949 | 81.18146 | 35863 ft | 444 kts | 277° |
| 2026-05-07 19:27 | 20.82789 | 81.11652 | 35872 ft | 444 kts | 277° |
| 2026-05-07 19:27 | 20.83633 | 81.05098 | 35877 ft | 444 kts | 277° |
| 2026-05-07 19:28 | 20.84461 | 80.98620 | 35880 ft | 443 kts | 277° |
| 2026-05-07 19:28 | 20.85299 | 80.92080 | 35876 ft | 444 kts | 277° |
| 2026-05-07 19:29 | 20.86145 | 80.85562 | 35872 ft | 444 kts | 278° |
| 2026-05-07 19:29 | 20.86977 | 80.79067 | 35869 ft | 445 kts | 278° |
| 2026-05-07 19:30 | 20.87807 | 80.72508 | 35868 ft | 445 kts | 277° |
| 2026-05-07 19:30 | 20.88633 | 80.65968 | 35858 ft | 445 kts | 278° |
| 2026-05-07 19:31 | 20.89475 | 80.59435 | 35859 ft | 445 kts | 278° |
| 2026-05-07 19:31 | 20.90313 | 80.52917 | 35860 ft | 444 kts | 278° |
| 2026-05-07 19:32 | 20.91145 | 80.46368 | 35865 ft | 444 kts | 278° |
| 2026-05-07 19:32 | 20.91967 | 80.39857 | 35864 ft | 444 kts | 278° |
| 2026-05-07 19:33 | 20.92790 | 80.33295 | 35869 ft | 445 kts | 277° |
| 2026-05-07 19:33 | 20.93606 | 80.26766 | 35867 ft | 445 kts | 277° |
| 2026-05-07 19:34 | 20.94418 | 80.20236 | 35865 ft | 445 kts | 277° |